Part of Slepp's ProjectsPastebinTURLImagebinFilebin
Feedback -- English French German Japanese
Create Upload Newest Tools Donate
Sign In | Create Account

Miscellany
Tuesday, October 19th, 2010 at 7:00:30pm UTC 

  1. <?xml version="1.0" encoding="UTF-8" standalone="no" ?>
  2. <gpx xmlns="http://www.topografix.com/GPX/1/1" creator="" version="1.1" xmlns:xsi="http://www.w3.org/2001/XMLSchema-instance" xsi:schemaLocation="http://www.topografix.com/GPX/1/1 http://www.topografix.com/GPX/1/1/gpx.xsd">
  3.  <trk>
  4.   <name>ACTIVE LOG122424</name>
  5.   <trkseg>
  6.    <trkpt lat="53.594360" lon="9.995706">
  7.     <ele>101.722</ele>
  8.     <time>2010-10-17T10:24:22Z</time>
  9.    </trkpt>
  10.    <trkpt lat="53.594410" lon="9.995786">
  11.     <ele>98.654</ele>
  12.     <time>2010-10-17T10:24:36Z</time>
  13.    </trkpt>
  14.    <trkpt lat="53.594272" lon="9.995974">
  15.     <ele>86.890</ele>
  16.     <time>2010-10-17T10:24:48Z</time>
  17.    </trkpt>
  18.    <trkpt lat="53.594230" lon="9.995946">
  19.     <ele>83.041</ele>
  20.     <time>2010-10-17T10:25:02Z</time>
  21.    </trkpt>
  22.    <trkpt lat="53.594063" lon="9.995959">
  23.     <ele>70.731</ele>
  24.     <time>2010-10-17T10:25:18Z</time>
  25.    </trkpt>
  26.    <trkpt lat="53.593954" lon="9.995993">
  27.     <ele>65.203</ele>
  28.     <time>2010-10-17T10:25:28Z</time>
  29.    </trkpt>
  30.    <trkpt lat="53.593951" lon="9.995966">
  31.     <ele>64.808</ele>
  32.     <time>2010-10-17T10:25:30Z</time>
  33.    </trkpt>
  34.    <trkpt lat="53.593949" lon="9.995909">
  35.     <ele>63.598</ele>
  36.     <time>2010-10-17T10:25:33Z</time>
  37.    </trkpt>
  38.    <trkpt lat="53.593797" lon="9.995577">
  39.     <ele>57.190</ele>
  40.     <time>2010-10-17T10:25:40Z</time>
  41.    </trkpt>
  42.    <trkpt lat="53.593747" lon="9.995397">
  43.     <ele>49.773</ele>
  44.     <time>2010-10-17T10:25:44Z</time>
  45.    </trkpt>
  46.    <trkpt lat="53.593622" lon="9.994882">
  47.     <ele>36.309</ele>
  48.     <time>2010-10-17T10:25:52Z</time>
  49.    </trkpt>
  50.    <trkpt lat="53.593514" lon="9.994413">
  51.     <ele>27.369</ele>
  52.     <time>2010-10-17T10:26:02Z</time>
  53.    </trkpt>
  54.    <trkpt lat="53.593231" lon="9.993786">
  55.     <ele>14.625</ele>
  56.     <time>2010-10-17T10:26:18Z</time>
  57.    </trkpt>
  58.    <trkpt lat="53.593056" lon="9.993230">
  59.     <ele>8.872</ele>
  60.     <time>2010-10-17T10:26:29Z</time>
  61.    </trkpt>
  62.    <trkpt lat="53.592969" lon="9.993024">
  63.     <ele>7.550</ele>
  64.     <time>2010-10-17T10:26:33Z</time>
  65.    </trkpt>
  66.    <trkpt lat="53.592831" lon="9.992756">
  67.     <ele>4.014</ele>
  68.     <time>2010-10-17T10:26:38Z</time>
  69.    </trkpt>
  70.    <trkpt lat="53.592786" lon="9.992409">
  71.     <ele>0.770</ele>
  72.     <time>2010-10-17T10:26:44Z</time>
  73.    </trkpt>
  74.    <trkpt lat="53.593146" lon="9.991364">
  75.     <ele>-0.566</ele>
  76.     <time>2010-10-17T10:27:00Z</time>
  77.    </trkpt>
  78.    <trkpt lat="53.593361" lon="9.990938">
  79.     <ele>-1.696</ele>
  80.     <time>2010-10-17T10:27:07Z</time>
  81.    </trkpt>
  82.    <trkpt lat="53.593453" lon="9.990759">
  83.     <ele>-1.507</ele>
  84.     <time>2010-10-17T10:27:10Z</time>
  85.    </trkpt>
  86.    <trkpt lat="53.593671" lon="9.990421">
  87.     <ele>-2.167</ele>
  88.     <time>2010-10-17T10:27:17Z</time>
  89.    </trkpt>
  90.    <trkpt lat="53.594158" lon="9.989268">
  91.     <ele>-2.138</ele>
  92.     <time>2010-10-17T10:27:37Z</time>
  93.    </trkpt>
  94.    <trkpt lat="53.594555" lon="9.988422">
  95.     <ele>0.033</ele>
  96.     <time>2010-10-17T10:27:54Z</time>
  97.    </trkpt>
  98.    <trkpt lat="53.594585" lon="9.988375">
  99.     <ele>1.649</ele>
  100.     <time>2010-10-17T10:28:06Z</time>
  101.    </trkpt>
  102.    <trkpt lat="53.594674" lon="9.987655">
  103.     <ele>0.374</ele>
  104.     <time>2010-10-17T10:28:21Z</time>
  105.    </trkpt>
  106.    <trkpt lat="53.594879" lon="9.986617">
  107.     <ele>-0.549</ele>
  108.     <time>2010-10-17T10:28:37Z</time>
  109.    </trkpt>
  110.    <trkpt lat="53.595319" lon="9.985336">
  111.     <ele>-0.201</ele>
  112.     <time>2010-10-17T10:28:58Z</time>
  113.    </trkpt>
  114.    <trkpt lat="53.595573" lon="9.984571">
  115.     <ele>-0.069</ele>
  116.     <time>2010-10-17T10:29:11Z</time>
  117.    </trkpt>
  118.    <trkpt lat="53.595860" lon="9.984100">
  119.     <ele>-1.245</ele>
  120.     <time>2010-10-17T10:29:25Z</time>
  121.    </trkpt>
  122.    <trkpt lat="53.595861" lon="9.984093">
  123.     <ele>-1.098</ele>
  124.     <time>2010-10-17T10:29:28Z</time>
  125.    </trkpt>
  126.    <trkpt lat="53.595873" lon="9.984000">
  127.     <ele>-1.565</ele>
  128.     <time>2010-10-17T10:29:31Z</time>
  129.    </trkpt>
  130.    <trkpt lat="53.595979" lon="9.983691">
  131.     <ele>-1.247</ele>
  132.     <time>2010-10-17T10:29:37Z</time>
  133.    </trkpt>
  134.    <trkpt lat="53.595971" lon="9.983530">
  135.     <ele>-1.017</ele>
  136.     <time>2010-10-17T10:29:40Z</time>
  137.    </trkpt>
  138.    <trkpt lat="53.596155" lon="9.982777">
  139.     <ele>-1.415</ele>
  140.     <time>2010-10-17T10:29:54Z</time>
  141.    </trkpt>
  142.    <trkpt lat="53.596308" lon="9.982255">
  143.     <ele>-3.605</ele>
  144.     <time>2010-10-17T10:30:04Z</time>
  145.    </trkpt>
  146.    <trkpt lat="53.596472" lon="9.981895">
  147.     <ele>-4.564</ele>
  148.     <time>2010-10-17T10:30:12Z</time>
  149.    </trkpt>
  150.    <trkpt lat="53.596519" lon="9.981720">
  151.     <ele>-4.142</ele>
  152.     <time>2010-10-17T10:30:16Z</time>
  153.    </trkpt>
  154.    <trkpt lat="53.596547" lon="9.981635">
  155.     <ele>-3.870</ele>
  156.     <time>2010-10-17T10:30:18Z</time>
  157.    </trkpt>
  158.    <trkpt lat="53.596662" lon="9.981330">
  159.     <ele>-2.800</ele>
  160.     <time>2010-10-17T10:30:25Z</time>
  161.    </trkpt>
  162.    <trkpt lat="53.596732" lon="9.981176">
  163.     <ele>-2.080</ele>
  164.     <time>2010-10-17T10:30:29Z</time>
  165.    </trkpt>
  166.    <trkpt lat="53.596971" lon="9.980506">
  167.     <ele>0.221</ele>
  168.     <time>2010-10-17T10:30:44Z</time>
  169.    </trkpt>
  170.    <trkpt lat="53.597095" lon="9.980236">
  171.     <ele>-0.487</ele>
  172.     <time>2010-10-17T10:30:50Z</time>
  173.    </trkpt>
  174.    <trkpt lat="53.597302" lon="9.979605">
  175.     <ele>3.306</ele>
  176.     <time>2010-10-17T10:31:04Z</time>
  177.    </trkpt>
  178.    <trkpt lat="53.597355" lon="9.979505">
  179.     <ele>3.733</ele>
  180.     <time>2010-10-17T10:31:06Z</time>
  181.    </trkpt>
  182.    <trkpt lat="53.597537" lon="9.978836">
  183.     <ele>4.539</ele>
  184.     <time>2010-10-17T10:31:18Z</time>
  185.    </trkpt>
  186.    <trkpt lat="53.597570" lon="9.978730">
  187.     <ele>5.138</ele>
  188.     <time>2010-10-17T10:31:20Z</time>
  189.    </trkpt>
  190.    <trkpt lat="53.597853" lon="9.978151">
  191.     <ele>7.856</ele>
  192.     <time>2010-10-17T10:31:32Z</time>
  193.    </trkpt>
  194.    <trkpt lat="53.598045" lon="9.977383">
  195.     <ele>6.923</ele>
  196.     <time>2010-10-17T10:31:47Z</time>
  197.    </trkpt>
  198.    <trkpt lat="53.598169" lon="9.976590">
  199.     <ele>6.801</ele>
  200.     <time>2010-10-17T10:32:00Z</time>
  201.    </trkpt>
  202.    <trkpt lat="53.598191" lon="9.976305">
  203.     <ele>6.081</ele>
  204.     <time>2010-10-17T10:32:04Z</time>
  205.    </trkpt>
  206.    <trkpt lat="53.598216" lon="9.976023">
  207.     <ele>6.383</ele>
  208.     <time>2010-10-17T10:32:08Z</time>
  209.    </trkpt>
  210.    <trkpt lat="53.598308" lon="9.975191">
  211.     <ele>6.493</ele>
  212.     <time>2010-10-17T10:32:20Z</time>
  213.    </trkpt>
  214.    <trkpt lat="53.598358" lon="9.974753">
  215.     <ele>5.026</ele>
  216.     <time>2010-10-17T10:32:26Z</time>
  217.    </trkpt>
  218.    <trkpt lat="53.598362" lon="9.974534">
  219.     <ele>4.135</ele>
  220.     <time>2010-10-17T10:32:29Z</time>
  221.    </trkpt>
  222.    <trkpt lat="53.598473" lon="9.973586">
  223.     <ele>3.963</ele>
  224.     <time>2010-10-17T10:32:42Z</time>
  225.    </trkpt>
  226.    <trkpt lat="53.598507" lon="9.973382">
  227.     <ele>3.797</ele>
  228.     <time>2010-10-17T10:32:45Z</time>
  229.    </trkpt>
  230.    <trkpt lat="53.598624" lon="9.972733">
  231.     <ele>3.135</ele>
  232.     <time>2010-10-17T10:32:55Z</time>
  233.    </trkpt>
  234.    <trkpt lat="53.598772" lon="9.971670">
  235.     <ele>2.617</ele>
  236.     <time>2010-10-17T10:33:11Z</time>
  237.    </trkpt>
  238.    <trkpt lat="53.598798" lon="9.971328">
  239.     <ele>3.512</ele>
  240.     <time>2010-10-17T10:33:16Z</time>
  241.    </trkpt>
  242.    <trkpt lat="53.598862" lon="9.970711">
  243.     <ele>3.453</ele>
  244.     <time>2010-10-17T10:33:25Z</time>
  245.    </trkpt>
  246.    <trkpt lat="53.598863" lon="9.970501">
  247.     <ele>3.299</ele>
  248.     <time>2010-10-17T10:33:28Z</time>
  249.    </trkpt>
  250.    <trkpt lat="53.598953" lon="9.969675">
  251.     <ele>3.017</ele>
  252.     <time>2010-10-17T10:33:40Z</time>
  253.    </trkpt>
  254.    <trkpt lat="53.599059" lon="9.969223">
  255.     <ele>3.011</ele>
  256.     <time>2010-10-17T10:33:47Z</time>
  257.    </trkpt>
  258.    <trkpt lat="53.599145" lon="9.969039">
  259.     <ele>5.209</ele>
  260.     <time>2010-10-17T10:33:50Z</time>
  261.    </trkpt>
  262.    <trkpt lat="53.599179" lon="9.968600">
  263.     <ele>4.545</ele>
  264.     <time>2010-10-17T10:33:56Z</time>
  265.    </trkpt>
  266.    <trkpt lat="53.599276" lon="9.967618">
  267.     <ele>2.988</ele>
  268.     <time>2010-10-17T10:34:11Z</time>
  269.    </trkpt>
  270.    <trkpt lat="53.599306" lon="9.967374">
  271.     <ele>2.070</ele>
  272.     <time>2010-10-17T10:34:15Z</time>
  273.    </trkpt>
  274.    <trkpt lat="53.599423" lon="9.966965">
  275.     <ele>1.371</ele>
  276.     <time>2010-10-17T10:34:22Z</time>
  277.    </trkpt>
  278.    <trkpt lat="53.599431" lon="9.966464">
  279.     <ele>-0.043</ele>
  280.     <time>2010-10-17T10:34:36Z</time>
  281.    </trkpt>
  282.    <trkpt lat="53.599436" lon="9.966418">
  283.     <ele>0.167</ele>
  284.     <time>2010-10-17T10:34:55Z</time>
  285.    </trkpt>
  286.    <trkpt lat="53.599447" lon="9.966418">
  287.     <ele>0.428</ele>
  288.     <time>2010-10-17T10:35:23Z</time>
  289.    </trkpt>
  290.    <trkpt lat="53.599465" lon="9.966235">
  291.     <ele>0.598</ele>
  292.     <time>2010-10-17T10:35:38Z</time>
  293.    </trkpt>
  294.    <trkpt lat="53.599531" lon="9.965818">
  295.     <ele>2.642</ele>
  296.     <time>2010-10-17T10:35:47Z</time>
  297.    </trkpt>
  298.    <trkpt lat="53.599540" lon="9.965547">
  299.     <ele>3.125</ele>
  300.     <time>2010-10-17T10:35:52Z</time>
  301.    </trkpt>
  302.    <trkpt lat="53.599596" lon="9.965278">
  303.     <ele>2.633</ele>
  304.     <time>2010-10-17T10:35:58Z</time>
  305.    </trkpt>
  306.    <trkpt lat="53.599900" lon="9.964534">
  307.     <ele>1.436</ele>
  308.     <time>2010-10-17T10:36:15Z</time>
  309.    </trkpt>
  310.    <trkpt lat="53.599989" lon="9.964294">
  311.     <ele>1.630</ele>
  312.     <time>2010-10-17T10:36:19Z</time>
  313.    </trkpt>
  314.    <trkpt lat="53.600097" lon="9.963925">
  315.     <ele>0.445</ele>
  316.     <time>2010-10-17T10:36:27Z</time>
  317.    </trkpt>
  318.    <trkpt lat="53.600116" lon="9.963921">
  319.     <ele>-0.474</ele>
  320.     <time>2010-10-17T10:36:43Z</time>
  321.    </trkpt>
  322.    <trkpt lat="53.600105" lon="9.963908">
  323.     <ele>-1.041</ele>
  324.     <time>2010-10-17T10:37:19Z</time>
  325.    </trkpt>
  326.    <trkpt lat="53.600153" lon="9.963789">
  327.     <ele>-0.439</ele>
  328.     <time>2010-10-17T10:37:30Z</time>
  329.    </trkpt>
  330.    <trkpt lat="53.600159" lon="9.963611">
  331.     <ele>0.492</ele>
  332.     <time>2010-10-17T10:37:34Z</time>
  333.    </trkpt>
  334.    <trkpt lat="53.600095" lon="9.962990">
  335.     <ele>-1.661</ele>
  336.     <time>2010-10-17T10:37:46Z</time>
  337.    </trkpt>
  338.    <trkpt lat="53.600032" lon="9.961936">
  339.     <ele>-8.052</ele>
  340.     <time>2010-10-17T10:38:02Z</time>
  341.    </trkpt>
  342.    <trkpt lat="53.599809" lon="9.961056">
  343.     <ele>-11.774</ele>
  344.     <time>2010-10-17T10:38:15Z</time>
  345.    </trkpt>
  346.    <trkpt lat="53.599690" lon="9.960806">
  347.     <ele>-13.138</ele>
  348.     <time>2010-10-17T10:38:18Z</time>
  349.    </trkpt>
  350.    <trkpt lat="53.599532" lon="9.960048">
  351.     <ele>-16.154</ele>
  352.     <time>2010-10-17T10:38:29Z</time>
  353.    </trkpt>
  354.    <trkpt lat="53.599442" lon="9.959229">
  355.     <ele>-20.964</ele>
  356.     <time>2010-10-17T10:38:42Z</time>
  357.    </trkpt>
  358.    <trkpt lat="53.599585" lon="9.958559">
  359.     <ele>-13.565</ele>
  360.     <time>2010-10-17T10:38:55Z</time>
  361.    </trkpt>
  362.    <trkpt lat="53.599678" lon="9.958385">
  363.     <ele>-13.259</ele>
  364.     <time>2010-10-17T10:38:59Z</time>
  365.    </trkpt>
  366.    <trkpt lat="53.599766" lon="9.958192">
  367.     <ele>-13.273</ele>
  368.     <time>2010-10-17T10:39:03Z</time>
  369.    </trkpt>
  370.    <trkpt lat="53.600025" lon="9.957728">
  371.     <ele>-10.640</ele>
  372.     <time>2010-10-17T10:39:15Z</time>
  373.    </trkpt>
  374.    <trkpt lat="53.600287" lon="9.957089">
  375.     <ele>-9.087</ele>
  376.     <time>2010-10-17T10:39:28Z</time>
  377.    </trkpt>
  378.    <trkpt lat="53.600672" lon="9.956504">
  379.     <ele>-8.495</ele>
  380.     <time>2010-10-17T10:39:44Z</time>
  381.    </trkpt>
  382.    <trkpt lat="53.600796" lon="9.956343">
  383.     <ele>-9.217</ele>
  384.     <time>2010-10-17T10:39:49Z</time>
  385.    </trkpt>
  386.    <trkpt lat="53.600874" lon="9.956367">
  387.     <ele>-9.166</ele>
  388.     <time>2010-10-17T10:39:53Z</time>
  389.    </trkpt>
  390.    <trkpt lat="53.600836" lon="9.956449">
  391.     <ele>-8.415</ele>
  392.     <time>2010-10-17T10:39:56Z</time>
  393.    </trkpt>
  394.    <trkpt lat="53.600884" lon="9.956691">
  395.     <ele>-8.043</ele>
  396.     <time>2010-10-17T10:40:03Z</time>
  397.    </trkpt>
  398.    <trkpt lat="53.601077" lon="9.957118">
  399.     <ele>-11.803</ele>
  400.     <time>2010-10-17T10:40:14Z</time>
  401.    </trkpt>
  402.    <trkpt lat="53.601336" lon="9.957219">
  403.     <ele>-12.267</ele>
  404.     <time>2010-10-17T10:40:20Z</time>
  405.    </trkpt>
  406.    <trkpt lat="53.601891" lon="9.957151">
  407.     <ele>-11.852</ele>
  408.     <time>2010-10-17T10:40:35Z</time>
  409.    </trkpt>
  410.    <trkpt lat="53.601941" lon="9.957262">
  411.     <ele>-11.238</ele>
  412.     <time>2010-10-17T10:40:39Z</time>
  413.    </trkpt>
  414.    <trkpt lat="53.601967" lon="9.957667">
  415.     <ele>-8.003</ele>
  416.     <time>2010-10-17T10:40:47Z</time>
  417.    </trkpt>
  418.    <trkpt lat="53.602061" lon="9.957720">
  419.     <ele>-6.986</ele>
  420.     <time>2010-10-17T10:40:52Z</time>
  421.    </trkpt>
  422.    <trkpt lat="53.602590" lon="9.957594">
  423.     <ele>-5.638</ele>
  424.     <time>2010-10-17T10:41:05Z</time>
  425.    </trkpt>
  426.    <trkpt lat="53.602731" lon="9.957533">
  427.     <ele>-5.516</ele>
  428.     <time>2010-10-17T10:41:09Z</time>
  429.    </trkpt>
  430.    <trkpt lat="53.603180" lon="9.957342">
  431.     <ele>-3.839</ele>
  432.     <time>2010-10-17T10:41:23Z</time>
  433.    </trkpt>
  434.    <trkpt lat="53.603237" lon="9.957324">
  435.     <ele>-3.675</ele>
  436.     <time>2010-10-17T10:41:25Z</time>
  437.    </trkpt>
  438.    <trkpt lat="53.603244" lon="9.957255">
  439.     <ele>-2.973</ele>
  440.     <time>2010-10-17T10:41:29Z</time>
  441.    </trkpt>
  442.    <trkpt lat="53.603190" lon="9.957315">
  443.     <ele>-2.608</ele>
  444.     <time>2010-10-17T10:41:33Z</time>
  445.    </trkpt>
  446.    <trkpt lat="53.603112" lon="9.957387">
  447.     <ele>-2.124</ele>
  448.     <time>2010-10-17T10:41:38Z</time>
  449.    </trkpt>
  450.    <trkpt lat="53.602977" lon="9.957426">
  451.     <ele>-2.834</ele>
  452.     <time>2010-10-17T10:41:42Z</time>
  453.    </trkpt>
  454.    <trkpt lat="53.602979" lon="9.957554">
  455.     <ele>-1.239</ele>
  456.     <time>2010-10-17T10:41:46Z</time>
  457.    </trkpt>
  458.    <trkpt lat="53.603007" lon="9.957606">
  459.     <ele>-0.768</ele>
  460.     <time>2010-10-17T10:41:48Z</time>
  461.    </trkpt>
  462.    <trkpt lat="53.603036" lon="9.957778">
  463.     <ele>0.988</ele>
  464.     <time>2010-10-17T10:41:53Z</time>
  465.    </trkpt>
  466.    <trkpt lat="53.603007" lon="9.957872">
  467.     <ele>1.550</ele>
  468.     <time>2010-10-17T10:41:56Z</time>
  469.    </trkpt>
  470.    <trkpt lat="53.603033" lon="9.958044">
  471.     <ele>2.918</ele>
  472.     <time>2010-10-17T10:42:02Z</time>
  473.    </trkpt>
  474.    <trkpt lat="53.603306" lon="9.958433">
  475.     <ele>-2.130</ele>
  476.     <time>2010-10-17T10:42:16Z</time>
  477.    </trkpt>
  478.    <trkpt lat="53.603449" lon="9.958553">
  479.     <ele>-3.851</ele>
  480.     <time>2010-10-17T10:42:21Z</time>
  481.    </trkpt>
  482.    <trkpt lat="53.603506" lon="9.958697">
  483.     <ele>-5.250</ele>
  484.     <time>2010-10-17T10:42:26Z</time>
  485.    </trkpt>
  486.    <trkpt lat="53.603521" lon="9.958822">
  487.     <ele>-5.216</ele>
  488.     <time>2010-10-17T10:42:29Z</time>
  489.    </trkpt>
  490.    <trkpt lat="53.603514" lon="9.959310">
  491.     <ele>-5.915</ele>
  492.     <time>2010-10-17T10:42:38Z</time>
  493.    </trkpt>
  494.    <trkpt lat="53.603494" lon="9.959439">
  495.     <ele>-5.371</ele>
  496.     <time>2010-10-17T10:42:54Z</time>
  497.    </trkpt>
  498.    <trkpt lat="53.603453" lon="9.959566">
  499.     <ele>-5.408</ele>
  500.     <time>2010-10-17T10:44:01Z</time>
  501.    </trkpt>
  502.    <trkpt lat="53.603753" lon="9.959981">
  503.     <ele>-7.581</ele>
  504.     <time>2010-10-17T10:44:22Z</time>
  505.    </trkpt>
  506.    <trkpt lat="53.603822" lon="9.960012">
  507.     <ele>-8.332</ele>
  508.     <time>2010-10-17T10:44:34Z</time>
  509.    </trkpt>
  510.    <trkpt lat="53.603922" lon="9.960242">
  511.     <ele>-4.389</ele>
  512.     <time>2010-10-17T10:44:54Z</time>
  513.    </trkpt>
  514.    <trkpt lat="53.603974" lon="9.960394">
  515.     <ele>-1.716</ele>
  516.     <time>2010-10-17T10:45:07Z</time>
  517.    </trkpt>
  518.    <trkpt lat="53.604113" lon="9.960619">
  519.     <ele>-2.236</ele>
  520.     <time>2010-10-17T10:45:28Z</time>
  521.    </trkpt>
  522.    <trkpt lat="53.604147" lon="9.960532">
  523.     <ele>-1.181</ele>
  524.     <time>2010-10-17T10:45:46Z</time>
  525.    </trkpt>
  526.    <trkpt lat="53.604158" lon="9.960456">
  527.     <ele>-1.240</ele>
  528.     <time>2010-10-17T10:45:55Z</time>
  529.    </trkpt>
  530.    <trkpt lat="53.604219" lon="9.960339">
  531.     <ele>-1.594</ele>
  532.     <time>2010-10-17T10:46:02Z</time>
  533.    </trkpt>
  534.    <trkpt lat="53.604286" lon="9.960264">
  535.     <ele>-1.916</ele>
  536.     <time>2010-10-17T10:46:06Z</time>
  537.    </trkpt>
  538.    <trkpt lat="53.604318" lon="9.960129">
  539.     <ele>-1.055</ele>
  540.     <time>2010-10-17T10:46:12Z</time>
  541.    </trkpt>
  542.    <trkpt lat="53.604561" lon="9.960059">
  543.     <ele>-0.995</ele>
  544.     <time>2010-10-17T10:46:21Z</time>
  545.    </trkpt>
  546.    <trkpt lat="53.604630" lon="9.959972">
  547.     <ele>-0.994</ele>
  548.     <time>2010-10-17T10:46:25Z</time>
  549.    </trkpt>
  550.    <trkpt lat="53.604959" lon="9.959835">
  551.     <ele>-5.917</ele>
  552.     <time>2010-10-17T10:46:40Z</time>
  553.    </trkpt>
  554.    <trkpt lat="53.604969" lon="9.959821">
  555.     <ele>-6.207</ele>
  556.     <time>2010-10-17T10:46:41Z</time>
  557.    </trkpt>
  558.    <trkpt lat="53.605129" lon="9.959737">
  559.     <ele>-5.324</ele>
  560.     <time>2010-10-17T10:46:50Z</time>
  561.    </trkpt>
  562.    <trkpt lat="53.605218" lon="9.959503">
  563.     <ele>-5.105</ele>
  564.     <time>2010-10-17T10:47:04Z</time>
  565.    </trkpt>
  566.    <trkpt lat="53.605228" lon="9.959471">
  567.     <ele>-4.781</ele>
  568.     <time>2010-10-17T10:47:26Z</time>
  569.    </trkpt>
  570.    <trkpt lat="53.605244" lon="9.959456">
  571.     <ele>-4.092</ele>
  572.     <time>2010-10-17T10:47:35Z</time>
  573.    </trkpt>
  574.    <trkpt lat="53.605310" lon="9.959026">
  575.     <ele>-4.469</ele>
  576.     <time>2010-10-17T10:47:54Z</time>
  577.    </trkpt>
  578.    <trkpt lat="53.605311" lon="9.959000">
  579.     <ele>-4.644</ele>
  580.     <time>2010-10-17T10:47:56Z</time>
  581.    </trkpt>
  582.    <trkpt lat="53.605406" lon="9.958849">
  583.     <ele>-6.666</ele>
  584.     <time>2010-10-17T10:48:04Z</time>
  585.    </trkpt>
  586.    <trkpt lat="53.605588" lon="9.958381">
  587.     <ele>-7.771</ele>
  588.     <time>2010-10-17T10:48:19Z</time>
  589.    </trkpt>
  590.    <trkpt lat="53.605650" lon="9.957837">
  591.     <ele>-9.065</ele>
  592.     <time>2010-10-17T10:48:30Z</time>
  593.    </trkpt>
  594.    <trkpt lat="53.605679" lon="9.957739">
  595.     <ele>-8.264</ele>
  596.     <time>2010-10-17T10:48:33Z</time>
  597.    </trkpt>
  598.    <trkpt lat="53.605859" lon="9.956982">
  599.     <ele>-8.447</ele>
  600.     <time>2010-10-17T10:48:47Z</time>
  601.    </trkpt>
  602.    <trkpt lat="53.605960" lon="9.956497">
  603.     <ele>-7.031</ele>
  604.     <time>2010-10-17T10:48:57Z</time>
  605.    </trkpt>
  606.    <trkpt lat="53.606043" lon="9.956080">
  607.     <ele>-2.930</ele>
  608.     <time>2010-10-17T10:49:06Z</time>
  609.    </trkpt>
  610.    <trkpt lat="53.606135" lon="9.956101">
  611.     <ele>-1.695</ele>
  612.     <time>2010-10-17T10:49:10Z</time>
  613.    </trkpt>
  614.    <trkpt lat="53.606577" lon="9.956554">
  615.     <ele>0.319</ele>
  616.     <time>2010-10-17T10:49:28Z</time>
  617.    </trkpt>
  618.    <trkpt lat="53.606955" lon="9.956565">
  619.     <ele>-1.054</ele>
  620.     <time>2010-10-17T10:49:39Z</time>
  621.    </trkpt>
  622.    <trkpt lat="53.607463" lon="9.956244">
  623.     <ele>-1.022</ele>
  624.     <time>2010-10-17T10:49:58Z</time>
  625.    </trkpt>
  626.    <trkpt lat="53.607472" lon="9.956204">
  627.     <ele>-2.448</ele>
  628.     <time>2010-10-17T10:50:10Z</time>
  629.    </trkpt>
  630.    <trkpt lat="53.607485" lon="9.956204">
  631.     <ele>-2.397</ele>
  632.     <time>2010-10-17T10:50:19Z</time>
  633.    </trkpt>
  634.    <trkpt lat="53.607770" lon="9.956232">
  635.     <ele>-2.301</ele>
  636.     <time>2010-10-17T10:50:32Z</time>
  637.    </trkpt>
  638.    <trkpt lat="53.607793" lon="9.956201">
  639.     <ele>-2.165</ele>
  640.     <time>2010-10-17T10:50:40Z</time>
  641.    </trkpt>
  642.    <trkpt lat="53.607894" lon="9.956171">
  643.     <ele>-0.011</ele>
  644.     <time>2010-10-17T10:50:47Z</time>
  645.    </trkpt>
  646.    <trkpt lat="53.607946" lon="9.956159">
  647.     <ele>-0.173</ele>
  648.     <time>2010-10-17T10:50:57Z</time>
  649.    </trkpt>
  650.    <trkpt lat="53.607946" lon="9.956159">
  651.     <ele>-0.144</ele>
  652.     <time>2010-10-17T10:50:58Z</time>
  653.    </trkpt>
  654.    <trkpt lat="53.607942" lon="9.956078">
  655.     <ele>0.440</ele>
  656.     <time>2010-10-17T10:51:01Z</time>
  657.    </trkpt>
  658.    <trkpt lat="53.607866" lon="9.955994">
  659.     <ele>-0.274</ele>
  660.     <time>2010-10-17T10:51:04Z</time>
  661.    </trkpt>
  662.    <trkpt lat="53.607934" lon="9.955714">
  663.     <ele>1.510</ele>
  664.     <time>2010-10-17T10:51:13Z</time>
  665.    </trkpt>
  666.    <trkpt lat="53.607945" lon="9.955669">
  667.     <ele>1.643</ele>
  668.     <time>2010-10-17T10:51:14Z</time>
  669.    </trkpt>
  670.    <trkpt lat="53.608090" lon="9.954875">
  671.     <ele>2.137</ele>
  672.     <time>2010-10-17T10:51:28Z</time>
  673.    </trkpt>
  674.    <trkpt lat="53.608175" lon="9.954153">
  675.     <ele>-0.494</ele>
  676.     <time>2010-10-17T10:51:40Z</time>
  677.    </trkpt>
  678.    <trkpt lat="53.608194" lon="9.953972">
  679.     <ele>-0.937</ele>
  680.     <time>2010-10-17T10:51:43Z</time>
  681.    </trkpt>
  682.    <trkpt lat="53.608237" lon="9.953704">
  683.     <ele>-0.825</ele>
  684.     <time>2010-10-17T10:51:47Z</time>
  685.    </trkpt>
  686.    <trkpt lat="53.608319" lon="9.952691">
  687.     <ele>4.158</ele>
  688.     <time>2010-10-17T10:52:05Z</time>
  689.    </trkpt>
  690.    <trkpt lat="53.608316" lon="9.952029">
  691.     <ele>5.221</ele>
  692.     <time>2010-10-17T10:52:16Z</time>
  693.    </trkpt>
  694.    <trkpt lat="53.608307" lon="9.951123">
  695.     <ele>4.980</ele>
  696.     <time>2010-10-17T10:52:30Z</time>
  697.    </trkpt>
  698.    <trkpt lat="53.608331" lon="9.950425">
  699.     <ele>2.231</ele>
  700.     <time>2010-10-17T10:52:41Z</time>
  701.    </trkpt>
  702.    <trkpt lat="53.608315" lon="9.949497">
  703.     <ele>0.336</ele>
  704.     <time>2010-10-17T10:52:54Z</time>
  705.    </trkpt>
  706.    <trkpt lat="53.608287" lon="9.948862">
  707.     <ele>3.818</ele>
  708.     <time>2010-10-17T10:53:04Z</time>
  709.    </trkpt>
  710.    <trkpt lat="53.608273" lon="9.948610">
  711.     <ele>5.075</ele>
  712.     <time>2010-10-17T10:53:08Z</time>
  713.    </trkpt>
  714.    <trkpt lat="53.608279" lon="9.948371">
  715.     <ele>5.841</ele>
  716.     <time>2010-10-17T10:53:12Z</time>
  717.    </trkpt>
  718.    <trkpt lat="53.608266" lon="9.947521">
  719.     <ele>6.667</ele>
  720.     <time>2010-10-17T10:53:26Z</time>
  721.    </trkpt>
  722.    <trkpt lat="53.608205" lon="9.946722">
  723.     <ele>0.275</ele>
  724.     <time>2010-10-17T10:53:37Z</time>
  725.    </trkpt>
  726.    <trkpt lat="53.608140" lon="9.946014">
  727.     <ele>0.607</ele>
  728.     <time>2010-10-17T10:53:48Z</time>
  729.    </trkpt>
  730.    <trkpt lat="53.608011" lon="9.945008">
  731.     <ele>0.824</ele>
  732.     <time>2010-10-17T10:54:03Z</time>
  733.    </trkpt>
  734.    <trkpt lat="53.607882" lon="9.944217">
  735.     <ele>-5.233</ele>
  736.     <time>2010-10-17T10:54:17Z</time>
  737.    </trkpt>
  738.    <trkpt lat="53.607857" lon="9.943970">
  739.     <ele>-3.787</ele>
  740.     <time>2010-10-17T10:54:21Z</time>
  741.    </trkpt>
  742.    <trkpt lat="53.607745" lon="9.943138">
  743.     <ele>-2.554</ele>
  744.     <time>2010-10-17T10:54:35Z</time>
  745.    </trkpt>
  746.    <trkpt lat="53.607642" lon="9.942264">
  747.     <ele>-1.253</ele>
  748.     <time>2010-10-17T10:54:49Z</time>
  749.    </trkpt>
  750.    <trkpt lat="53.607632" lon="9.942201">
  751.     <ele>-1.541</ele>
  752.     <time>2010-10-17T10:54:50Z</time>
  753.    </trkpt>
  754.    <trkpt lat="53.607530" lon="9.941571">
  755.     <ele>-0.753</ele>
  756.     <time>2010-10-17T10:55:01Z</time>
  757.    </trkpt>
  758.    <trkpt lat="53.607507" lon="9.941350">
  759.     <ele>0.317</ele>
  760.     <time>2010-10-17T10:55:04Z</time>
  761.    </trkpt>
  762.    <trkpt lat="53.607438" lon="9.940753">
  763.     <ele>4.464</ele>
  764.     <time>2010-10-17T10:55:13Z</time>
  765.    </trkpt>
  766.    <trkpt lat="53.607340" lon="9.940128">
  767.     <ele>2.308</ele>
  768.     <time>2010-10-17T10:55:23Z</time>
  769.    </trkpt>
  770.    <trkpt lat="53.607226" lon="9.939164">
  771.     <ele>3.490</ele>
  772.     <time>2010-10-17T10:55:38Z</time>
  773.    </trkpt>
  774.    <trkpt lat="53.607146" lon="9.938401">
  775.     <ele>6.433</ele>
  776.     <time>2010-10-17T10:55:51Z</time>
  777.    </trkpt>
  778.    <trkpt lat="53.607042" lon="9.937692">
  779.     <ele>2.962</ele>
  780.     <time>2010-10-17T10:56:02Z</time>
  781.    </trkpt>
  782.    <trkpt lat="53.606858" lon="9.936698">
  783.     <ele>1.288</ele>
  784.     <time>2010-10-17T10:56:18Z</time>
  785.    </trkpt>
  786.    <trkpt lat="53.606807" lon="9.936495">
  787.     <ele>0.757</ele>
  788.     <time>2010-10-17T10:56:21Z</time>
  789.    </trkpt>
  790.    <trkpt lat="53.606664" lon="9.935511">
  791.     <ele>5.409</ele>
  792.     <time>2010-10-17T10:56:36Z</time>
  793.    </trkpt>
  794.    <trkpt lat="53.606641" lon="9.934822">
  795.     <ele>6.196</ele>
  796.     <time>2010-10-17T10:56:48Z</time>
  797.    </trkpt>
  798.    <trkpt lat="53.606673" lon="9.934640">
  799.     <ele>6.374</ele>
  800.     <time>2010-10-17T10:56:52Z</time>
  801.    </trkpt>
  802.    <trkpt lat="53.606949" lon="9.934398">
  803.     <ele>12.503</ele>
  804.     <time>2010-10-17T10:57:06Z</time>
  805.    </trkpt>
  806.    <trkpt lat="53.607121" lon="9.933948">
  807.     <ele>14.122</ele>
  808.     <time>2010-10-17T10:57:18Z</time>
  809.    </trkpt>
  810.    <trkpt lat="53.607266" lon="9.933714">
  811.     <ele>13.825</ele>
  812.     <time>2010-10-17T10:57:25Z</time>
  813.    </trkpt>
  814.    <trkpt lat="53.607569" lon="9.933730">
  815.     <ele>10.333</ele>
  816.     <time>2010-10-17T10:57:37Z</time>
  817.    </trkpt>
  818.    <trkpt lat="53.607634" lon="9.933640">
  819.     <ele>7.983</ele>
  820.     <time>2010-10-17T10:57:40Z</time>
  821.    </trkpt>
  822.    <trkpt lat="53.607946" lon="9.933372">
  823.     <ele>7.628</ele>
  824.     <time>2010-10-17T10:57:51Z</time>
  825.    </trkpt>
  826.    <trkpt lat="53.608329" lon="9.933199">
  827.     <ele>11.776</ele>
  828.     <time>2010-10-17T10:58:04Z</time>
  829.    </trkpt>
  830.    <trkpt lat="53.608344" lon="9.933190">
  831.     <ele>12.261</ele>
  832.     <time>2010-10-17T10:58:05Z</time>
  833.    </trkpt>
  834.    <trkpt lat="53.608452" lon="9.933150">
  835.     <ele>14.760</ele>
  836.     <time>2010-10-17T10:58:10Z</time>
  837.    </trkpt>
  838.    <trkpt lat="53.608473" lon="9.933044">
  839.     <ele>16.888</ele>
  840.     <time>2010-10-17T10:58:14Z</time>
  841.    </trkpt>
  842.    <trkpt lat="53.608486" lon="9.932990">
  843.     <ele>18.194</ele>
  844.     <time>2010-10-17T10:58:17Z</time>
  845.    </trkpt>
  846.    <trkpt lat="53.608465" lon="9.932388">
  847.     <ele>22.138</ele>
  848.     <time>2010-10-17T10:58:29Z</time>
  849.    </trkpt>
  850.    <trkpt lat="53.608453" lon="9.931900">
  851.     <ele>20.732</ele>
  852.     <time>2010-10-17T10:58:37Z</time>
  853.    </trkpt>
  854.    <trkpt lat="53.608489" lon="9.931714">
  855.     <ele>20.620</ele>
  856.     <time>2010-10-17T10:58:43Z</time>
  857.    </trkpt>
  858.    <trkpt lat="53.608610" lon="9.931565">
  859.     <ele>21.175</ele>
  860.     <time>2010-10-17T10:58:49Z</time>
  861.    </trkpt>
  862.    <trkpt lat="53.608773" lon="9.931509">
  863.     <ele>22.642</ele>
  864.     <time>2010-10-17T10:58:55Z</time>
  865.    </trkpt>
  866.    <trkpt lat="53.609162" lon="9.931506">
  867.     <ele>26.634</ele>
  868.     <time>2010-10-17T10:59:06Z</time>
  869.    </trkpt>
  870.    <trkpt lat="53.609281" lon="9.931448">
  871.     <ele>27.464</ele>
  872.     <time>2010-10-17T10:59:12Z</time>
  873.    </trkpt>
  874.    <trkpt lat="53.609401" lon="9.931491">
  875.     <ele>28.843</ele>
  876.     <time>2010-10-17T10:59:16Z</time>
  877.    </trkpt>
  878.    <trkpt lat="53.609825" lon="9.931482">
  879.     <ele>28.151</ele>
  880.     <time>2010-10-17T10:59:28Z</time>
  881.    </trkpt>
  882.    <trkpt lat="53.609861" lon="9.931488">
  883.     <ele>27.757</ele>
  884.     <time>2010-10-17T10:59:29Z</time>
  885.    </trkpt>
  886.    <trkpt lat="53.610237" lon="9.931459">
  887.     <ele>27.739</ele>
  888.     <time>2010-10-17T10:59:41Z</time>
  889.    </trkpt>
  890.    <trkpt lat="53.610405" lon="9.931413">
  891.     <ele>28.323</ele>
  892.     <time>2010-10-17T10:59:46Z</time>
  893.    </trkpt>
  894.    <trkpt lat="53.610547" lon="9.931418">
  895.     <ele>26.848</ele>
  896.     <time>2010-10-17T10:59:50Z</time>
  897.    </trkpt>
  898.    <trkpt lat="53.610916" lon="9.931369">
  899.     <ele>22.616</ele>
  900.     <time>2010-10-17T11:00:01Z</time>
  901.    </trkpt>
  902.    <trkpt lat="53.611298" lon="9.931373">
  903.     <ele>15.069</ele>
  904.     <time>2010-10-17T11:00:11Z</time>
  905.    </trkpt>
  906.    <trkpt lat="53.611318" lon="9.931359">
  907.     <ele>14.603</ele>
  908.     <time>2010-10-17T11:00:12Z</time>
  909.    </trkpt>
  910.    <trkpt lat="53.611295" lon="9.930647">
  911.     <ele>11.121</ele>
  912.     <time>2010-10-17T11:00:25Z</time>
  913.    </trkpt>
  914.    <trkpt lat="53.611217" lon="9.930124">
  915.     <ele>10.542</ele>
  916.     <time>2010-10-17T11:00:33Z</time>
  917.    </trkpt>
  918.    <trkpt lat="53.611422" lon="9.929412">
  919.     <ele>8.934</ele>
  920.     <time>2010-10-17T11:00:48Z</time>
  921.    </trkpt>
  922.    <trkpt lat="53.611636" lon="9.929030">
  923.     <ele>12.981</ele>
  924.     <time>2010-10-17T11:00:57Z</time>
  925.    </trkpt>
  926.    <trkpt lat="53.612134" lon="9.928600">
  927.     <ele>11.177</ele>
  928.     <time>2010-10-17T11:01:10Z</time>
  929.    </trkpt>
  930.    <trkpt lat="53.612117" lon="9.928578">
  931.     <ele>10.202</ele>
  932.     <time>2010-10-17T11:01:31Z</time>
  933.    </trkpt>
  934.    <trkpt lat="53.611733" lon="9.928120">
  935.     <ele>10.295</ele>
  936.     <time>2010-10-17T11:01:49Z</time>
  937.    </trkpt>
  938.    <trkpt lat="53.611420" lon="9.927624">
  939.     <ele>8.196</ele>
  940.     <time>2010-10-17T11:02:04Z</time>
  941.    </trkpt>
  942.    <trkpt lat="53.611099" lon="9.927103">
  943.     <ele>8.671</ele>
  944.     <time>2010-10-17T11:02:20Z</time>
  945.    </trkpt>
  946.    <trkpt lat="53.611034" lon="9.927025">
  947.     <ele>8.303</ele>
  948.     <time>2010-10-17T11:02:23Z</time>
  949.    </trkpt>
  950.    <trkpt lat="53.611027" lon="9.926886">
  951.     <ele>6.310</ele>
  952.     <time>2010-10-17T11:02:28Z</time>
  953.    </trkpt>
  954.    <trkpt lat="53.611082" lon="9.926769">
  955.     <ele>5.308</ele>
  956.     <time>2010-10-17T11:02:40Z</time>
  957.    </trkpt>
  958.    <trkpt lat="53.611569" lon="9.926383">
  959.     <ele>5.111</ele>
  960.     <time>2010-10-17T11:02:57Z</time>
  961.    </trkpt>
  962.    <trkpt lat="53.611760" lon="9.926142">
  963.     <ele>4.257</ele>
  964.     <time>2010-10-17T11:03:04Z</time>
  965.    </trkpt>
  966.    <trkpt lat="53.611808" lon="9.925359">
  967.     <ele>5.086</ele>
  968.     <time>2010-10-17T11:03:18Z</time>
  969.    </trkpt>
  970.    <trkpt lat="53.611822" lon="9.924519">
  971.     <ele>1.299</ele>
  972.     <time>2010-10-17T11:03:34Z</time>
  973.    </trkpt>
  974.    <trkpt lat="53.611745" lon="9.924433">
  975.     <ele>1.393</ele>
  976.     <time>2010-10-17T11:03:46Z</time>
  977.    </trkpt>
  978.    <trkpt lat="53.611565" lon="9.924421">
  979.     <ele>1.819</ele>
  980.     <time>2010-10-17T11:04:15Z</time>
  981.    </trkpt>
  982.    <trkpt lat="53.611460" lon="9.923935">
  983.     <ele>0.945</ele>
  984.     <time>2010-10-17T11:04:26Z</time>
  985.    </trkpt>
  986.    <trkpt lat="53.611607" lon="9.923048">
  987.     <ele>0.537</ele>
  988.     <time>2010-10-17T11:04:44Z</time>
  989.    </trkpt>
  990.    <trkpt lat="53.611744" lon="9.922480">
  991.     <ele>-1.214</ele>
  992.     <time>2010-10-17T11:04:57Z</time>
  993.    </trkpt>
  994.    <trkpt lat="53.611957" lon="9.922471">
  995.     <ele>-0.317</ele>
  996.     <time>2010-10-17T11:05:10Z</time>
  997.    </trkpt>
  998.    <trkpt lat="53.611949" lon="9.922482">
  999.     <ele>-1.826</ele>
  1000.     <time>2010-10-17T11:05:26Z</time>
  1001.    </trkpt>
  1002.    <trkpt lat="53.611873" lon="9.922369">
  1003.     <ele>-0.227</ele>
  1004.     <time>2010-10-17T11:05:35Z</time>
  1005.    </trkpt>
  1006.    <trkpt lat="53.611879" lon="9.922078">
  1007.     <ele>-1.747</ele>
  1008.     <time>2010-10-17T11:05:44Z</time>
  1009.    </trkpt>
  1010.    <trkpt lat="53.611930" lon="9.921996">
  1011.     <ele>-2.156</ele>
  1012.     <time>2010-10-17T11:05:47Z</time>
  1013.    </trkpt>
  1014.    <trkpt lat="53.612211" lon="9.921567">
  1015.     <ele>-0.631</ele>
  1016.     <time>2010-10-17T11:06:03Z</time>
  1017.    </trkpt>
  1018.    <trkpt lat="53.612443" lon="9.921141">
  1019.     <ele>0.889</ele>
  1020.     <time>2010-10-17T11:06:15Z</time>
  1021.    </trkpt>
  1022.    <trkpt lat="53.612432" lon="9.921020">
  1023.     <ele>1.388</ele>
  1024.     <time>2010-10-17T11:06:19Z</time>
  1025.    </trkpt>
  1026.    <trkpt lat="53.612150" lon="9.920822">
  1027.     <ele>1.382</ele>
  1028.     <time>2010-10-17T11:06:32Z</time>
  1029.    </trkpt>
  1030.    <trkpt lat="53.611602" lon="9.920428">
  1031.     <ele>2.126</ele>
  1032.     <time>2010-10-17T11:06:50Z</time>
  1033.    </trkpt>
  1034.    <trkpt lat="53.611188" lon="9.920158">
  1035.     <ele>1.156</ele>
  1036.     <time>2010-10-17T11:07:03Z</time>
  1037.    </trkpt>
  1038.    <trkpt lat="53.610922" lon="9.919957">
  1039.     <ele>0.273</ele>
  1040.     <time>2010-10-17T11:07:14Z</time>
  1041.    </trkpt>
  1042.    <trkpt lat="53.610336" lon="9.919698">
  1043.     <ele>-0.473</ele>
  1044.     <time>2010-10-17T11:07:30Z</time>
  1045.    </trkpt>
  1046.    <trkpt lat="53.609897" lon="9.919836">
  1047.     <ele>1.365</ele>
  1048.     <time>2010-10-17T11:07:47Z</time>
  1049.    </trkpt>
  1050.    <trkpt lat="53.609979" lon="9.920716">
  1051.     <ele>2.058</ele>
  1052.     <time>2010-10-17T11:08:04Z</time>
  1053.    </trkpt>
  1054.    <trkpt lat="53.610033" lon="9.921017">
  1055.     <ele>0.794</ele>
  1056.     <time>2010-10-17T11:08:16Z</time>
  1057.    </trkpt>
  1058.    <trkpt lat="53.609975" lon="9.921018">
  1059.     <ele>1.200</ele>
  1060.     <time>2010-10-17T11:08:21Z</time>
  1061.    </trkpt>
  1062.    <trkpt lat="53.609724" lon="9.919917">
  1063.     <ele>3.112</ele>
  1064.     <time>2010-10-17T11:08:41Z</time>
  1065.    </trkpt>
  1066.    <trkpt lat="53.609605" lon="9.919324">
  1067.     <ele>5.835</ele>
  1068.     <time>2010-10-17T11:08:52Z</time>
  1069.    </trkpt>
  1070.    <trkpt lat="53.609503" lon="9.918415">
  1071.     <ele>10.645</ele>
  1072.     <time>2010-10-17T11:09:09Z</time>
  1073.    </trkpt>
  1074.    <trkpt lat="53.609554" lon="9.917159">
  1075.     <ele>10.239</ele>
  1076.     <time>2010-10-17T11:09:31Z</time>
  1077.    </trkpt>
  1078.    <trkpt lat="53.609734" lon="9.916303">
  1079.     <ele>9.686</ele>
  1080.     <time>2010-10-17T11:09:44Z</time>
  1081.    </trkpt>
  1082.    <trkpt lat="53.609786" lon="9.916085">
  1083.     <ele>9.418</ele>
  1084.     <time>2010-10-17T11:09:47Z</time>
  1085.    </trkpt>
  1086.    <trkpt lat="53.610173" lon="9.915428">
  1087.     <ele>3.921</ele>
  1088.     <time>2010-10-17T11:10:02Z</time>
  1089.    </trkpt>
  1090.    <trkpt lat="53.610210" lon="9.915413">
  1091.     <ele>3.419</ele>
  1092.     <time>2010-10-17T11:10:03Z</time>
  1093.    </trkpt>
  1094.    <trkpt lat="53.610819" lon="9.914645">
  1095.     <ele>3.794</ele>
  1096.     <time>2010-10-17T11:10:21Z</time>
  1097.    </trkpt>
  1098.    <trkpt lat="53.611197" lon="9.913541">
  1099.     <ele>7.096</ele>
  1100.     <time>2010-10-17T11:10:39Z</time>
  1101.    </trkpt>
  1102.    <trkpt lat="53.611218" lon="9.913401">
  1103.     <ele>7.517</ele>
  1104.     <time>2010-10-17T11:10:41Z</time>
  1105.    </trkpt>
  1106.    <trkpt lat="53.611343" lon="9.912798">
  1107.     <ele>9.013</ele>
  1108.     <time>2010-10-17T11:10:50Z</time>
  1109.    </trkpt>
  1110.    <trkpt lat="53.611365" lon="9.912537">
  1111.     <ele>9.193</ele>
  1112.     <time>2010-10-17T11:10:54Z</time>
  1113.    </trkpt>
  1114.    <trkpt lat="53.611267" lon="9.912124">
  1115.     <ele>9.779</ele>
  1116.     <time>2010-10-17T11:11:01Z</time>
  1117.    </trkpt>
  1118.    <trkpt lat="53.610962" lon="9.911510">
  1119.     <ele>10.076</ele>
  1120.     <time>2010-10-17T11:11:15Z</time>
  1121.    </trkpt>
  1122.    <trkpt lat="53.610725" lon="9.910704">
  1123.     <ele>4.589</ele>
  1124.     <time>2010-10-17T11:11:30Z</time>
  1125.    </trkpt>
  1126.    <trkpt lat="53.610507" lon="9.909765">
  1127.     <ele>8.149</ele>
  1128.     <time>2010-10-17T11:11:44Z</time>
  1129.    </trkpt>
  1130.    <trkpt lat="53.610409" lon="9.909333">
  1131.     <ele>10.087</ele>
  1132.     <time>2010-10-17T11:11:51Z</time>
  1133.    </trkpt>
  1134.    <trkpt lat="53.610312" lon="9.908358">
  1135.     <ele>9.362</ele>
  1136.     <time>2010-10-17T11:12:07Z</time>
  1137.    </trkpt>
  1138.    <trkpt lat="53.610207" lon="9.907393">
  1139.     <ele>11.038</ele>
  1140.     <time>2010-10-17T11:12:21Z</time>
  1141.    </trkpt>
  1142.    <trkpt lat="53.610221" lon="9.907325">
  1143.     <ele>13.180</ele>
  1144.     <time>2010-10-17T11:12:22Z</time>
  1145.    </trkpt>
  1146.    <trkpt lat="53.610192" lon="9.906666">
  1147.     <ele>15.742</ele>
  1148.     <time>2010-10-17T11:12:31Z</time>
  1149.    </trkpt>
  1150.    <trkpt lat="53.610011" lon="9.905205">
  1151.     <ele>13.812</ele>
  1152.     <time>2010-10-17T11:12:54Z</time>
  1153.    </trkpt>
  1154.    <trkpt lat="53.609952" lon="9.904966">
  1155.     <ele>14.415</ele>
  1156.     <time>2010-10-17T11:13:07Z</time>
  1157.    </trkpt>
  1158.    <trkpt lat="53.609954" lon="9.904956">
  1159.     <ele>13.702</ele>
  1160.     <time>2010-10-17T11:13:45Z</time>
  1161.    </trkpt>
  1162.    <trkpt lat="53.609958" lon="9.904773">
  1163.     <ele>13.600</ele>
  1164.     <time>2010-10-17T11:13:50Z</time>
  1165.    </trkpt>
  1166.    <trkpt lat="53.609583" lon="9.904591">
  1167.     <ele>14.779</ele>
  1168.     <time>2010-10-17T11:14:04Z</time>
  1169.    </trkpt>
  1170.    <trkpt lat="53.609059" lon="9.904631">
  1171.     <ele>15.336</ele>
  1172.     <time>2010-10-17T11:14:18Z</time>
  1173.    </trkpt>
  1174.    <trkpt lat="53.608806" lon="9.904366">
  1175.     <ele>15.196</ele>
  1176.     <time>2010-10-17T11:14:30Z</time>
  1177.    </trkpt>
  1178.    <trkpt lat="53.608807" lon="9.904317">
  1179.     <ele>16.442</ele>
  1180.     <time>2010-10-17T11:14:48Z</time>
  1181.    </trkpt>
  1182.    <trkpt lat="53.608809" lon="9.904300">
  1183.     <ele>16.774</ele>
  1184.     <time>2010-10-17T11:14:49Z</time>
  1185.    </trkpt>
  1186.    <trkpt lat="53.608847" lon="9.903967">
  1187.     <ele>16.867</ele>
  1188.     <time>2010-10-17T11:14:58Z</time>
  1189.    </trkpt>
  1190.    <trkpt lat="53.609287" lon="9.903101">
  1191.     <ele>16.550</ele>
  1192.     <time>2010-10-17T11:15:18Z</time>
  1193.    </trkpt>
  1194.    <trkpt lat="53.609851" lon="9.901984">
  1195.     <ele>19.196</ele>
  1196.     <time>2010-10-17T11:15:40Z</time>
  1197.    </trkpt>
  1198.    <trkpt lat="53.610426" lon="9.900982">
  1199.     <ele>17.316</ele>
  1200.     <time>2010-10-17T11:16:02Z</time>
  1201.    </trkpt>
  1202.    <trkpt lat="53.610773" lon="9.900173">
  1203.     <ele>17.630</ele>
  1204.     <time>2010-10-17T11:16:19Z</time>
  1205.    </trkpt>
  1206.    <trkpt lat="53.610888" lon="9.899891">
  1207.     <ele>17.072</ele>
  1208.     <time>2010-10-17T11:16:32Z</time>
  1209.    </trkpt>
  1210.    <trkpt lat="53.610882" lon="9.899597">
  1211.     <ele>15.649</ele>
  1212.     <time>2010-10-17T11:16:39Z</time>
  1213.    </trkpt>
  1214.    <trkpt lat="53.610762" lon="9.899405">
  1215.     <ele>15.762</ele>
  1216.     <time>2010-10-17T11:16:45Z</time>
  1217.    </trkpt>
  1218.    <trkpt lat="53.610642" lon="9.899335">
  1219.     <ele>15.840</ele>
  1220.     <time>2010-10-17T11:16:50Z</time>
  1221.    </trkpt>
  1222.    <trkpt lat="53.610316" lon="9.898784">
  1223.     <ele>17.343</ele>
  1224.     <time>2010-10-17T11:17:02Z</time>
  1225.    </trkpt>
  1226.    <trkpt lat="53.610190" lon="9.898552">
  1227.     <ele>19.608</ele>
  1228.     <time>2010-10-17T11:17:07Z</time>
  1229.    </trkpt>
  1230.    <trkpt lat="53.610442" lon="9.897686">
  1231.     <ele>21.687</ele>
  1232.     <time>2010-10-17T11:17:22Z</time>
  1233.    </trkpt>
  1234.    <trkpt lat="53.610759" lon="9.896822">
  1235.     <ele>22.508</ele>
  1236.     <time>2010-10-17T11:17:36Z</time>
  1237.    </trkpt>
  1238.    <trkpt lat="53.610833" lon="9.896636">
  1239.     <ele>22.411</ele>
  1240.     <time>2010-10-17T11:17:39Z</time>
  1241.    </trkpt>
  1242.    <trkpt lat="53.611094" lon="9.895765">
  1243.     <ele>22.070</ele>
  1244.     <time>2010-10-17T11:17:54Z</time>
  1245.    </trkpt>
  1246.    <trkpt lat="53.611375" lon="9.895014">
  1247.     <ele>18.719</ele>
  1248.     <time>2010-10-17T11:18:08Z</time>
  1249.    </trkpt>
  1250.    <trkpt lat="53.611614" lon="9.894294">
  1251.     <ele>19.742</ele>
  1252.     <time>2010-10-17T11:18:21Z</time>
  1253.    </trkpt>
  1254.    <trkpt lat="53.611730" lon="9.894016">
  1255.     <ele>19.327</ele>
  1256.     <time>2010-10-17T11:18:26Z</time>
  1257.    </trkpt>
  1258.    <trkpt lat="53.611829" lon="9.893704">
  1259.     <ele>18.402</ele>
  1260.     <time>2010-10-17T11:18:31Z</time>
  1261.    </trkpt>
  1262.    <trkpt lat="53.612007" lon="9.893046">
  1263.     <ele>17.773</ele>
  1264.     <time>2010-10-17T11:18:42Z</time>
  1265.    </trkpt>
  1266.    <trkpt lat="53.612267" lon="9.892243">
  1267.     <ele>16.479</ele>
  1268.     <time>2010-10-17T11:18:55Z</time>
  1269.    </trkpt>
  1270.    <trkpt lat="53.612371" lon="9.891890">
  1271.     <ele>15.878</ele>
  1272.     <time>2010-10-17T11:19:00Z</time>
  1273.    </trkpt>
  1274.    <trkpt lat="53.612597" lon="9.891256">
  1275.     <ele>16.356</ele>
  1276.     <time>2010-10-17T11:19:10Z</time>
  1277.    </trkpt>
  1278.    <trkpt lat="53.612711" lon="9.890839">
  1279.     <ele>16.474</ele>
  1280.     <time>2010-10-17T11:19:17Z</time>
  1281.    </trkpt>
  1282.    <trkpt lat="53.612861" lon="9.890379">
  1283.     <ele>15.769</ele>
  1284.     <time>2010-10-17T11:19:24Z</time>
  1285.    </trkpt>
  1286.    <trkpt lat="53.612978" lon="9.890191">
  1287.     <ele>15.004</ele>
  1288.     <time>2010-10-17T11:19:28Z</time>
  1289.    </trkpt>
  1290.    <trkpt lat="53.613664" lon="9.890331">
  1291.     <ele>15.523</ele>
  1292.     <time>2010-10-17T11:19:45Z</time>
  1293.    </trkpt>
  1294.    <trkpt lat="53.613869" lon="9.890390">
  1295.     <ele>14.728</ele>
  1296.     <time>2010-10-17T11:19:51Z</time>
  1297.    </trkpt>
  1298.    <trkpt lat="53.613987" lon="9.890202">
  1299.     <ele>15.296</ele>
  1300.     <time>2010-10-17T11:19:56Z</time>
  1301.    </trkpt>
  1302.    <trkpt lat="53.614107" lon="9.889356">
  1303.     <ele>13.427</ele>
  1304.     <time>2010-10-17T11:20:10Z</time>
  1305.    </trkpt>
  1306.    <trkpt lat="53.614440" lon="9.887931">
  1307.     <ele>14.706</ele>
  1308.     <time>2010-10-17T11:20:33Z</time>
  1309.    </trkpt>
  1310.    <trkpt lat="53.614727" lon="9.886841">
  1311.     <ele>14.813</ele>
  1312.     <time>2010-10-17T11:20:52Z</time>
  1313.    </trkpt>
  1314.    <trkpt lat="53.614943" lon="9.885737">
  1315.     <ele>16.211</ele>
  1316.     <time>2010-10-17T11:21:10Z</time>
  1317.    </trkpt>
  1318.    <trkpt lat="53.615133" lon="9.885081">
  1319.     <ele>15.526</ele>
  1320.     <time>2010-10-17T11:21:22Z</time>
  1321.    </trkpt>
  1322.    <trkpt lat="53.615334" lon="9.884634">
  1323.     <ele>15.501</ele>
  1324.     <time>2010-10-17T11:21:29Z</time>
  1325.    </trkpt>
  1326.    <trkpt lat="53.615756" lon="9.883722">
  1327.     <ele>16.281</ele>
  1328.     <time>2010-10-17T11:21:46Z</time>
  1329.    </trkpt>
  1330.    <trkpt lat="53.615953" lon="9.883239">
  1331.     <ele>16.527</ele>
  1332.     <time>2010-10-17T11:21:54Z</time>
  1333.    </trkpt>
  1334.    <trkpt lat="53.616444" lon="9.881856">
  1335.     <ele>14.037</ele>
  1336.     <time>2010-10-17T11:22:16Z</time>
  1337.    </trkpt>
  1338.    <trkpt lat="53.616747" lon="9.880841">
  1339.     <ele>15.073</ele>
  1340.     <time>2010-10-17T11:22:34Z</time>
  1341.    </trkpt>
  1342.    <trkpt lat="53.616903" lon="9.880399">
  1343.     <ele>14.419</ele>
  1344.     <time>2010-10-17T11:22:42Z</time>
  1345.    </trkpt>
  1346.    <trkpt lat="53.617014" lon="9.880438">
  1347.     <ele>13.346</ele>
  1348.     <time>2010-10-17T11:22:47Z</time>
  1349.    </trkpt>
  1350.    <trkpt lat="53.617049" lon="9.880461">
  1351.     <ele>13.870</ele>
  1352.     <time>2010-10-17T11:22:53Z</time>
  1353.    </trkpt>
  1354.    <trkpt lat="53.617396" lon="9.880251">
  1355.     <ele>14.218</ele>
  1356.     <time>2010-10-17T11:23:09Z</time>
  1357.    </trkpt>
  1358.    <trkpt lat="53.617793" lon="9.880128">
  1359.     <ele>8.804</ele>
  1360.     <time>2010-10-17T11:23:23Z</time>
  1361.    </trkpt>
  1362.    <trkpt lat="53.617944" lon="9.880076">
  1363.     <ele>11.589</ele>
  1364.     <time>2010-10-17T11:23:38Z</time>
  1365.    </trkpt>
  1366.    <trkpt lat="53.617971" lon="9.880037">
  1367.     <ele>11.816</ele>
  1368.     <time>2010-10-17T11:24:15Z</time>
  1369.    </trkpt>
  1370.    <trkpt lat="53.617936" lon="9.880014">
  1371.     <ele>13.959</ele>
  1372.     <time>2010-10-17T11:24:35Z</time>
  1373.    </trkpt>
  1374.    <trkpt lat="53.617916" lon="9.879977">
  1375.     <ele>15.310</ele>
  1376.     <time>2010-10-17T11:24:47Z</time>
  1377.    </trkpt>
  1378.    <trkpt lat="53.617917" lon="9.880034">
  1379.     <ele>15.337</ele>
  1380.     <time>2010-10-17T11:25:08Z</time>
  1381.    </trkpt>
  1382.    <trkpt lat="53.617979" lon="9.880049">
  1383.     <ele>15.579</ele>
  1384.     <time>2010-10-17T11:25:34Z</time>
  1385.    </trkpt>
  1386.    <trkpt lat="53.618032" lon="9.880050">
  1387.     <ele>15.326</ele>
  1388.     <time>2010-10-17T11:25:36Z</time>
  1389.    </trkpt>
  1390.    <trkpt lat="53.618212" lon="9.880231">
  1391.     <ele>14.987</ele>
  1392.     <time>2010-10-17T11:25:45Z</time>
  1393.    </trkpt>
  1394.    <trkpt lat="53.618313" lon="9.880080">
  1395.     <ele>15.966</ele>
  1396.     <time>2010-10-17T11:25:49Z</time>
  1397.    </trkpt>
  1398.    <trkpt lat="53.618483" lon="9.879543">
  1399.     <ele>13.762</ele>
  1400.     <time>2010-10-17T11:25:59Z</time>
  1401.    </trkpt>
  1402.    <trkpt lat="53.618950" lon="9.878293">
  1403.     <ele>13.268</ele>
  1404.     <time>2010-10-17T11:26:22Z</time>
  1405.    </trkpt>
  1406.    <trkpt lat="53.619271" lon="9.877556">
  1407.     <ele>12.163</ele>
  1408.     <time>2010-10-17T11:26:36Z</time>
  1409.    </trkpt>
  1410.    <trkpt lat="53.619600" lon="9.876796">
  1411.     <ele>12.247</ele>
  1412.     <time>2010-10-17T11:26:50Z</time>
  1413.    </trkpt>
  1414.    <trkpt lat="53.619859" lon="9.876306">
  1415.     <ele>11.688</ele>
  1416.     <time>2010-10-17T11:26:59Z</time>
  1417.    </trkpt>
  1418.    <trkpt lat="53.620286" lon="9.875218">
  1419.     <ele>9.115</ele>
  1420.     <time>2010-10-17T11:27:16Z</time>
  1421.    </trkpt>
  1422.    <trkpt lat="53.620643" lon="9.874408">
  1423.     <ele>8.206</ele>
  1424.     <time>2010-10-17T11:27:31Z</time>
  1425.    </trkpt>
  1426.    <trkpt lat="53.620736" lon="9.874116">
  1427.     <ele>7.032</ele>
  1428.     <time>2010-10-17T11:27:36Z</time>
  1429.    </trkpt>
  1430.    <trkpt lat="53.620884" lon="9.874063">
  1431.     <ele>5.888</ele>
  1432.     <time>2010-10-17T11:27:40Z</time>
  1433.    </trkpt>
  1434.    <trkpt lat="53.620933" lon="9.873782">
  1435.     <ele>5.255</ele>
  1436.     <time>2010-10-17T11:27:45Z</time>
  1437.    </trkpt>
  1438.    <trkpt lat="53.620946" lon="9.873271">
  1439.     <ele>6.406</ele>
  1440.     <time>2010-10-17T11:27:53Z</time>
  1441.    </trkpt>
  1442.    <trkpt lat="53.621045" lon="9.872765">
  1443.     <ele>8.391</ele>
  1444.     <time>2010-10-17T11:28:01Z</time>
  1445.    </trkpt>
  1446.    <trkpt lat="53.621144" lon="9.872434">
  1447.     <ele>7.573</ele>
  1448.     <time>2010-10-17T11:28:07Z</time>
  1449.    </trkpt>
  1450.    <trkpt lat="53.621092" lon="9.872450">
  1451.     <ele>7.136</ele>
  1452.     <time>2010-10-17T11:28:11Z</time>
  1453.    </trkpt>
  1454.    <trkpt lat="53.621093" lon="9.872526">
  1455.     <ele>7.872</ele>
  1456.     <time>2010-10-17T11:28:13Z</time>
  1457.    </trkpt>
  1458.    <trkpt lat="53.621024" lon="9.872682">
  1459.     <ele>8.672</ele>
  1460.     <time>2010-10-17T11:28:17Z</time>
  1461.    </trkpt>
  1462.    <trkpt lat="53.621029" lon="9.872840">
  1463.     <ele>8.837</ele>
  1464.     <time>2010-10-17T11:28:22Z</time>
  1465.    </trkpt>
  1466.    <trkpt lat="53.621280" lon="9.872985">
  1467.     <ele>9.639</ele>
  1468.     <time>2010-10-17T11:28:31Z</time>
  1469.    </trkpt>
  1470.    <trkpt lat="53.621536" lon="9.873510">
  1471.     <ele>11.491</ele>
  1472.     <time>2010-10-17T11:28:43Z</time>
  1473.    </trkpt>
  1474.    <trkpt lat="53.621713" lon="9.873836">
  1475.     <ele>13.363</ele>
  1476.     <time>2010-10-17T11:28:51Z</time>
  1477.    </trkpt>
  1478.    <trkpt lat="53.621949" lon="9.874597">
  1479.     <ele>13.243</ele>
  1480.     <time>2010-10-17T11:29:03Z</time>
  1481.    </trkpt>
  1482.    <trkpt lat="53.622251" lon="9.874923">
  1483.     <ele>13.185</ele>
  1484.     <time>2010-10-17T11:29:11Z</time>
  1485.    </trkpt>
  1486.    <trkpt lat="53.622404" lon="9.874947">
  1487.     <ele>11.826</ele>
  1488.     <time>2010-10-17T11:29:15Z</time>
  1489.    </trkpt>
  1490.    <trkpt lat="53.622813" lon="9.875304">
  1491.     <ele>13.631</ele>
  1492.     <time>2010-10-17T11:29:26Z</time>
  1493.    </trkpt>
  1494.    <trkpt lat="53.623108" lon="9.875416">
  1495.     <ele>14.807</ele>
  1496.     <time>2010-10-17T11:29:33Z</time>
  1497.    </trkpt>
  1498.    <trkpt lat="53.623408" lon="9.875585">
  1499.     <ele>11.544</ele>
  1500.     <time>2010-10-17T11:29:42Z</time>
  1501.    </trkpt>
  1502.    <trkpt lat="53.623640" lon="9.875617">
  1503.     <ele>7.145</ele>
  1504.     <time>2010-10-17T11:29:49Z</time>
  1505.    </trkpt>
  1506.    <trkpt lat="53.623772" lon="9.875609">
  1507.     <ele>7.384</ele>
  1508.     <time>2010-10-17T11:29:53Z</time>
  1509.    </trkpt>
  1510.    <trkpt lat="53.623824" lon="9.875574">
  1511.     <ele>7.706</ele>
  1512.     <time>2010-10-17T11:29:55Z</time>
  1513.    </trkpt>
  1514.    <trkpt lat="53.624123" lon="9.875476">
  1515.     <ele>10.415</ele>
  1516.     <time>2010-10-17T11:30:05Z</time>
  1517.    </trkpt>
  1518.    <trkpt lat="53.624526" lon="9.875443">
  1519.     <ele>15.119</ele>
  1520.     <time>2010-10-17T11:30:17Z</time>
  1521.    </trkpt>
  1522.    <trkpt lat="53.624917" lon="9.875153">
  1523.     <ele>13.134</ele>
  1524.     <time>2010-10-17T11:30:31Z</time>
  1525.    </trkpt>
  1526.    <trkpt lat="53.624972" lon="9.875059">
  1527.     <ele>13.133</ele>
  1528.     <time>2010-10-17T11:30:33Z</time>
  1529.    </trkpt>
  1530.    <trkpt lat="53.624966" lon="9.874637">
  1531.     <ele>8.295</ele>
  1532.     <time>2010-10-17T11:30:41Z</time>
  1533.    </trkpt>
  1534.    <trkpt lat="53.625111" lon="9.874260">
  1535.     <ele>3.245</ele>
  1536.     <time>2010-10-17T11:30:49Z</time>
  1537.    </trkpt>
  1538.    <trkpt lat="53.625234" lon="9.873668">
  1539.     <ele>-1.133</ele>
  1540.     <time>2010-10-17T11:31:01Z</time>
  1541.    </trkpt>
  1542.    <trkpt lat="53.625247" lon="9.873544">
  1543.     <ele>-4.247</ele>
  1544.     <time>2010-10-17T11:31:13Z</time>
  1545.    </trkpt>
  1546.    <trkpt lat="53.625235" lon="9.873316">
  1547.     <ele>-3.502</ele>
  1548.     <time>2010-10-17T11:32:03Z</time>
  1549.    </trkpt>
  1550.    <trkpt lat="53.625234" lon="9.873286">
  1551.     <ele>-3.705</ele>
  1552.     <time>2010-10-17T11:32:04Z</time>
  1553.    </trkpt>
  1554.    <trkpt lat="53.625172" lon="9.873200">
  1555.     <ele>-4.201</ele>
  1556.     <time>2010-10-17T11:32:19Z</time>
  1557.    </trkpt>
  1558.    <trkpt lat="53.625209" lon="9.873201">
  1559.     <ele>-3.929</ele>
  1560.     <time>2010-10-17T11:33:13Z</time>
  1561.    </trkpt>
  1562.    <trkpt lat="53.625276" lon="9.873082">
  1563.     <ele>-2.949</ele>
  1564.     <time>2010-10-17T11:33:20Z</time>
  1565.    </trkpt>
  1566.    <trkpt lat="53.625226" lon="9.872671">
  1567.     <ele>-3.765</ele>
  1568.     <time>2010-10-17T11:33:30Z</time>
  1569.    </trkpt>
  1570.    <trkpt lat="53.625268" lon="9.871943">
  1571.     <ele>-3.328</ele>
  1572.     <time>2010-10-17T11:33:43Z</time>
  1573.    </trkpt>
  1574.    <trkpt lat="53.625220" lon="9.871596">
  1575.     <ele>-4.781</ele>
  1576.     <time>2010-10-17T11:33:51Z</time>
  1577.    </trkpt>
  1578.    <trkpt lat="53.625282" lon="9.871500">
  1579.     <ele>-5.167</ele>
  1580.     <time>2010-10-17T11:33:55Z</time>
  1581.    </trkpt>
  1582.    <trkpt lat="53.625425" lon="9.871611">
  1583.     <ele>-0.244</ele>
  1584.     <time>2010-10-17T11:34:02Z</time>
  1585.    </trkpt>
  1586.    <trkpt lat="53.625779" lon="9.871871">
  1587.     <ele>3.636</ele>
  1588.     <time>2010-10-17T11:34:14Z</time>
  1589.    </trkpt>
  1590.    <trkpt lat="53.626263" lon="9.872273">
  1591.     <ele>4.638</ele>
  1592.     <time>2010-10-17T11:34:29Z</time>
  1593.    </trkpt>
  1594.    <trkpt lat="53.626767" lon="9.872641">
  1595.     <ele>6.791</ele>
  1596.     <time>2010-10-17T11:34:44Z</time>
  1597.    </trkpt>
  1598.    <trkpt lat="53.626862" lon="9.872070">
  1599.     <ele>4.852</ele>
  1600.     <time>2010-10-17T11:34:55Z</time>
  1601.    </trkpt>
  1602.    <trkpt lat="53.627075" lon="9.870915">
  1603.     <ele>4.824</ele>
  1604.     <time>2010-10-17T11:35:12Z</time>
  1605.    </trkpt>
  1606.    <trkpt lat="53.627369" lon="9.870123">
  1607.     <ele>4.377</ele>
  1608.     <time>2010-10-17T11:35:28Z</time>
  1609.    </trkpt>
  1610.    <trkpt lat="53.627379" lon="9.870017">
  1611.     <ele>6.124</ele>
  1612.     <time>2010-10-17T11:36:07Z</time>
  1613.    </trkpt>
  1614.    <trkpt lat="53.627518" lon="9.869557">
  1615.     <ele>7.162</ele>
  1616.     <time>2010-10-17T11:36:18Z</time>
  1617.    </trkpt>
  1618.    <trkpt lat="53.627787" lon="9.869119">
  1619.     <ele>11.878</ele>
  1620.     <time>2010-10-17T11:36:30Z</time>
  1621.    </trkpt>
  1622.    <trkpt lat="53.628094" lon="9.869268">
  1623.     <ele>11.322</ele>
  1624.     <time>2010-10-17T11:36:42Z</time>
  1625.    </trkpt>
  1626.    <trkpt lat="53.628186" lon="9.869127">
  1627.     <ele>11.508</ele>
  1628.     <time>2010-10-17T11:36:46Z</time>
  1629.    </trkpt>
  1630.    <trkpt lat="53.628284" lon="9.869095">
  1631.     <ele>12.086</ele>
  1632.     <time>2010-10-17T11:36:50Z</time>
  1633.    </trkpt>
  1634.    <trkpt lat="53.628297" lon="9.869150">
  1635.     <ele>12.389</ele>
  1636.     <time>2010-10-17T11:37:16Z</time>
  1637.    </trkpt>
  1638.    <trkpt lat="53.628355" lon="9.869260">
  1639.     <ele>11.493</ele>
  1640.     <time>2010-10-17T11:37:21Z</time>
  1641.    </trkpt>
  1642.    <trkpt lat="53.628328" lon="9.869436">
  1643.     <ele>10.986</ele>
  1644.     <time>2010-10-17T11:37:25Z</time>
  1645.    </trkpt>
  1646.    <trkpt lat="53.628408" lon="9.869728">
  1647.     <ele>10.281</ele>
  1648.     <time>2010-10-17T11:37:30Z</time>
  1649.    </trkpt>
  1650.    <trkpt lat="53.628773" lon="9.870147">
  1651.     <ele>8.491</ele>
  1652.     <time>2010-10-17T11:37:41Z</time>
  1653.    </trkpt>
  1654.    <trkpt lat="53.628739" lon="9.870314">
  1655.     <ele>8.377</ele>
  1656.     <time>2010-10-17T11:37:45Z</time>
  1657.    </trkpt>
  1658.    <trkpt lat="53.628722" lon="9.870369">
  1659.     <ele>8.096</ele>
  1660.     <time>2010-10-17T11:37:47Z</time>
  1661.    </trkpt>
  1662.    <trkpt lat="53.628680" lon="9.870356">
  1663.     <ele>5.705</ele>
  1664.     <time>2010-10-17T11:37:58Z</time>
  1665.    </trkpt>
  1666.    <trkpt lat="53.628745" lon="9.870104">
  1667.     <ele>4.115</ele>
  1668.     <time>2010-10-17T11:38:04Z</time>
  1669.    </trkpt>
  1670.    <trkpt lat="53.628681" lon="9.869949">
  1671.     <ele>2.928</ele>
  1672.     <time>2010-10-17T11:38:08Z</time>
  1673.    </trkpt>
  1674.    <trkpt lat="53.628610" lon="9.869912">
  1675.     <ele>2.164</ele>
  1676.     <time>2010-10-17T11:38:10Z</time>
  1677.    </trkpt>
  1678.    <trkpt lat="53.628429" lon="9.869752">
  1679.     <ele>1.273</ele>
  1680.     <time>2010-10-17T11:38:14Z</time>
  1681.    </trkpt>
  1682.    <trkpt lat="53.628216" lon="9.869339">
  1683.     <ele>3.487</ele>
  1684.     <time>2010-10-17T11:38:23Z</time>
  1685.    </trkpt>
  1686.    <trkpt lat="53.628192" lon="9.869315">
  1687.     <ele>5.859</ele>
  1688.     <time>2010-10-17T11:38:26Z</time>
  1689.    </trkpt>
  1690.    <trkpt lat="53.628199" lon="9.869631">
  1691.     <ele>11.808</ele>
  1692.     <time>2010-10-17T11:38:39Z</time>
  1693.    </trkpt>
  1694.    <trkpt lat="53.628441" lon="9.870017">
  1695.     <ele>16.347</ele>
  1696.     <time>2010-10-17T11:38:54Z</time>
  1697.    </trkpt>
  1698.    <trkpt lat="53.628894" lon="9.870568">
  1699.     <ele>17.798</ele>
  1700.     <time>2010-10-17T11:39:13Z</time>
  1701.    </trkpt>
  1702.    <trkpt lat="53.629202" lon="9.870877">
  1703.     <ele>17.255</ele>
  1704.     <time>2010-10-17T11:39:26Z</time>
  1705.    </trkpt>
  1706.    <trkpt lat="53.629784" lon="9.871414">
  1707.     <ele>14.342</ele>
  1708.     <time>2010-10-17T11:39:39Z</time>
  1709.    </trkpt>
  1710.    <trkpt lat="53.630349" lon="9.871933">
  1711.     <ele>12.274</ele>
  1712.     <time>2010-10-17T11:39:48Z</time>
  1713.    </trkpt>
  1714.    <trkpt lat="53.630634" lon="9.872145">
  1715.     <ele>11.939</ele>
  1716.     <time>2010-10-17T11:39:54Z</time>
  1717.    </trkpt>
  1718.    <trkpt lat="53.631209" lon="9.872423">
  1719.     <ele>11.559</ele>
  1720.     <time>2010-10-17T11:40:10Z</time>
  1721.    </trkpt>
  1722.    <trkpt lat="53.631291" lon="9.872458">
  1723.     <ele>11.389</ele>
  1724.     <time>2010-10-17T11:40:22Z</time>
  1725.    </trkpt>
  1726.    <trkpt lat="53.631396" lon="9.872447">
  1727.     <ele>11.926</ele>
  1728.     <time>2010-10-17T11:40:48Z</time>
  1729.    </trkpt>
  1730.    <trkpt lat="53.631436" lon="9.871827">
  1731.     <ele>12.194</ele>
  1732.     <time>2010-10-17T11:41:00Z</time>
  1733.    </trkpt>
  1734.    <trkpt lat="53.631454" lon="9.870981">
  1735.     <ele>14.386</ele>
  1736.     <time>2010-10-17T11:41:13Z</time>
  1737.    </trkpt>
  1738.    <trkpt lat="53.631465" lon="9.870486">
  1739.     <ele>14.506</ele>
  1740.     <time>2010-10-17T11:41:20Z</time>
  1741.    </trkpt>
  1742.    <trkpt lat="53.631493" lon="9.870012">
  1743.     <ele>14.924</ele>
  1744.     <time>2010-10-17T11:41:27Z</time>
  1745.    </trkpt>
  1746.    <trkpt lat="53.631960" lon="9.869682">
  1747.     <ele>15.440</ele>
  1748.     <time>2010-10-17T11:41:41Z</time>
  1749.    </trkpt>
  1750.    <trkpt lat="53.632386" lon="9.869358">
  1751.     <ele>14.758</ele>
  1752.     <time>2010-10-17T11:41:58Z</time>
  1753.    </trkpt>
  1754.    <trkpt lat="53.632408" lon="9.869398">
  1755.     <ele>14.042</ele>
  1756.     <time>2010-10-17T11:42:19Z</time>
  1757.    </trkpt>
  1758.    <trkpt lat="53.632444" lon="9.869402">
  1759.     <ele>14.275</ele>
  1760.     <time>2010-10-17T11:42:22Z</time>
  1761.    </trkpt>
  1762.    <trkpt lat="53.632458" lon="9.869410">
  1763.     <ele>13.740</ele>
  1764.     <time>2010-10-17T11:42:31Z</time>
  1765.    </trkpt>
  1766.    <trkpt lat="53.632438" lon="9.869399">
  1767.     <ele>14.037</ele>
  1768.     <time>2010-10-17T11:42:36Z</time>
  1769.    </trkpt>
  1770.    <trkpt lat="53.632479" lon="9.869389">
  1771.     <ele>15.299</ele>
  1772.     <time>2010-10-17T11:42:53Z</time>
  1773.    </trkpt>
  1774.    <trkpt lat="53.632496" lon="9.869396">
  1775.     <ele>15.522</ele>
  1776.     <time>2010-10-17T11:43:40Z</time>
  1777.    </trkpt>
  1778.    <trkpt lat="53.632480" lon="9.869399">
  1779.     <ele>16.314</ele>
  1780.     <time>2010-10-17T11:44:09Z</time>
  1781.    </trkpt>
  1782.    <trkpt lat="53.632476" lon="9.869398">
  1783.     <ele>15.953</ele>
  1784.     <time>2010-10-17T11:45:38Z</time>
  1785.    </trkpt>
  1786.    <trkpt lat="53.632475" lon="9.869398">
  1787.     <ele>15.938</ele>
  1788.     <time>2010-10-17T11:45:39Z</time>
  1789.    </trkpt>
  1790.    <trkpt lat="53.632389" lon="9.869347">
  1791.     <ele>14.279</ele>
  1792.     <time>2010-10-17T11:45:59Z</time>
  1793.    </trkpt>
  1794.    <trkpt lat="53.632390" lon="9.869358">
  1795.     <ele>12.989</ele>
  1796.     <time>2010-10-17T11:46:25Z</time>
  1797.    </trkpt>
  1798.    <trkpt lat="53.632394" lon="9.869341">
  1799.     <ele>12.458</ele>
  1800.     <time>2010-10-17T11:46:38Z</time>
  1801.    </trkpt>
  1802.    <trkpt lat="53.632364" lon="9.869288">
  1803.     <ele>13.079</ele>
  1804.     <time>2010-10-17T11:46:56Z</time>
  1805.    </trkpt>
  1806.    <trkpt lat="53.632361" lon="9.869289">
  1807.     <ele>13.030</ele>
  1808.     <time>2010-10-17T11:47:57Z</time>
  1809.    </trkpt>
  1810.    <trkpt lat="53.632361" lon="9.869288">
  1811.     <ele>12.158</ele>
  1812.     <time>2010-10-17T11:48:41Z</time>
  1813.    </trkpt>
  1814.    <trkpt lat="53.632384" lon="9.869366">
  1815.     <ele>11.911</ele>
  1816.     <time>2010-10-17T11:49:25Z</time>
  1817.    </trkpt>
  1818.    <trkpt lat="53.632383" lon="9.869389">
  1819.     <ele>11.739</ele>
  1820.     <time>2010-10-17T11:50:11Z</time>
  1821.    </trkpt>
  1822.    <trkpt lat="53.632385" lon="9.869383">
  1823.     <ele>11.871</ele>
  1824.     <time>2010-10-17T11:50:52Z</time>
  1825.    </trkpt>
  1826.    <trkpt lat="53.632385" lon="9.869358">
  1827.     <ele>11.498</ele>
  1828.     <time>2010-10-17T11:52:26Z</time>
  1829.    </trkpt>
  1830.    <trkpt lat="53.632388" lon="9.869361">
  1831.     <ele>10.646</ele>
  1832.     <time>2010-10-17T11:52:46Z</time>
  1833.    </trkpt>
  1834.    <trkpt lat="53.632385" lon="9.869369">
  1835.     <ele>10.860</ele>
  1836.     <time>2010-10-17T11:53:49Z</time>
  1837.    </trkpt>
  1838.    <trkpt lat="53.632371" lon="9.869335">
  1839.     <ele>10.806</ele>
  1840.     <time>2010-10-17T11:53:58Z</time>
  1841.    </trkpt>
  1842.    <trkpt lat="53.632344" lon="9.869348">
  1843.     <ele>11.087</ele>
  1844.     <time>2010-10-17T11:54:01Z</time>
  1845.    </trkpt>
  1846.    <trkpt lat="53.632024" lon="9.869542">
  1847.     <ele>10.122</ele>
  1848.     <time>2010-10-17T11:54:20Z</time>
  1849.    </trkpt>
  1850.    <trkpt lat="53.631678" lon="9.869805">
  1851.     <ele>14.788</ele>
  1852.     <time>2010-10-17T11:54:43Z</time>
  1853.    </trkpt>
  1854.    <trkpt lat="53.631633" lon="9.869826">
  1855.     <ele>16.660</ele>
  1856.     <time>2010-10-17T11:54:47Z</time>
  1857.    </trkpt>
  1858.    <trkpt lat="53.631538" lon="9.869845">
  1859.     <ele>15.944</ele>
  1860.     <time>2010-10-17T11:54:53Z</time>
  1861.    </trkpt>
  1862.    <trkpt lat="53.631507" lon="9.869832">
  1863.     <ele>15.590</ele>
  1864.     <time>2010-10-17T11:55:21Z</time>
  1865.    </trkpt>
  1866.    <trkpt lat="53.631504" lon="9.869878">
  1867.     <ele>14.464</ele>
  1868.     <time>2010-10-17T11:56:22Z</time>
  1869.    </trkpt>
  1870.    <trkpt lat="53.631484" lon="9.869873">
  1871.     <ele>14.021</ele>
  1872.     <time>2010-10-17T11:57:13Z</time>
  1873.    </trkpt>
  1874.    <trkpt lat="53.631375" lon="9.870076">
  1875.     <ele>13.638</ele>
  1876.     <time>2010-10-17T11:57:20Z</time>
  1877.    </trkpt>
  1878.    <trkpt lat="53.631370" lon="9.870841">
  1879.     <ele>12.321</ele>
  1880.     <time>2010-10-17T11:57:35Z</time>
  1881.    </trkpt>
  1882.    <trkpt lat="53.631327" lon="9.871811">
  1883.     <ele>10.083</ele>
  1884.     <time>2010-10-17T11:57:52Z</time>
  1885.    </trkpt>
  1886.    <trkpt lat="53.631303" lon="9.872301">
  1887.     <ele>8.965</ele>
  1888.     <time>2010-10-17T11:58:01Z</time>
  1889.    </trkpt>
  1890.    <trkpt lat="53.631203" lon="9.872384">
  1891.     <ele>8.063</ele>
  1892.     <time>2010-10-17T11:58:05Z</time>
  1893.    </trkpt>
  1894.    <trkpt lat="53.630777" lon="9.872218">
  1895.     <ele>7.199</ele>
  1896.     <time>2010-10-17T11:58:17Z</time>
  1897.    </trkpt>
  1898.    <trkpt lat="53.630610" lon="9.872137">
  1899.     <ele>5.231</ele>
  1900.     <time>2010-10-17T11:58:21Z</time>
  1901.    </trkpt>
  1902.    <trkpt lat="53.629932" lon="9.871536">
  1903.     <ele>2.664</ele>
  1904.     <time>2010-10-17T11:58:32Z</time>
  1905.    </trkpt>
  1906.    <trkpt lat="53.629366" lon="9.870976">
  1907.     <ele>-0.299</ele>
  1908.     <time>2010-10-17T11:58:44Z</time>
  1909.    </trkpt>
  1910.    <trkpt lat="53.629035" lon="9.870684">
  1911.     <ele>9.761</ele>
  1912.     <time>2010-10-17T11:59:02Z</time>
  1913.    </trkpt>
  1914.    <trkpt lat="53.628651" lon="9.870304">
  1915.     <ele>10.792</ele>
  1916.     <time>2010-10-17T11:59:20Z</time>
  1917.    </trkpt>
  1918.    <trkpt lat="53.628263" lon="9.869786">
  1919.     <ele>7.888</ele>
  1920.     <time>2010-10-17T11:59:33Z</time>
  1921.    </trkpt>
  1922.    <trkpt lat="53.628229" lon="9.869321">
  1923.     <ele>5.834</ele>
  1924.     <time>2010-10-17T11:59:39Z</time>
  1925.    </trkpt>
  1926.    <trkpt lat="53.628269" lon="9.869187">
  1927.     <ele>5.351</ele>
  1928.     <time>2010-10-17T11:59:41Z</time>
  1929.    </trkpt>
  1930.    <trkpt lat="53.628141" lon="9.869163">
  1931.     <ele>4.590</ele>
  1932.     <time>2010-10-17T11:59:47Z</time>
  1933.    </trkpt>
  1934.    <trkpt lat="53.627904" lon="9.869166">
  1935.     <ele>3.623</ele>
  1936.     <time>2010-10-17T11:59:53Z</time>
  1937.    </trkpt>
  1938.    <trkpt lat="53.627694" lon="9.869202">
  1939.     <ele>3.184</ele>
  1940.     <time>2010-10-17T11:59:58Z</time>
  1941.    </trkpt>
  1942.    <trkpt lat="53.627482" lon="9.869923">
  1943.     <ele>1.829</ele>
  1944.     <time>2010-10-17T12:00:10Z</time>
  1945.    </trkpt>
  1946.    <trkpt lat="53.627348" lon="9.870270">
  1947.     <ele>-0.931</ele>
  1948.     <time>2010-10-17T12:00:15Z</time>
  1949.    </trkpt>
  1950.    <trkpt lat="53.627151" lon="9.870793">
  1951.     <ele>-0.327</ele>
  1952.     <time>2010-10-17T12:00:23Z</time>
  1953.    </trkpt>
  1954.    <trkpt lat="53.627091" lon="9.870997">
  1955.     <ele>0.046</ele>
  1956.     <time>2010-10-17T12:00:26Z</time>
  1957.    </trkpt>
  1958.    <trkpt lat="53.627003" lon="9.871248">
  1959.     <ele>0.940</ele>
  1960.     <time>2010-10-17T12:00:30Z</time>
  1961.    </trkpt>
  1962.    <trkpt lat="53.626953" lon="9.871527">
  1963.     <ele>1.243</ele>
  1964.     <time>2010-10-17T12:00:34Z</time>
  1965.    </trkpt>
  1966.    <trkpt lat="53.626830" lon="9.872524">
  1967.     <ele>3.847</ele>
  1968.     <time>2010-10-17T12:00:50Z</time>
  1969.    </trkpt>
  1970.    <trkpt lat="53.626821" lon="9.872573">
  1971.     <ele>2.982</ele>
  1972.     <time>2010-10-17T12:00:51Z</time>
  1973.    </trkpt>
  1974.    <trkpt lat="53.626687" lon="9.872573">
  1975.     <ele>2.607</ele>
  1976.     <time>2010-10-17T12:00:57Z</time>
  1977.    </trkpt>
  1978.    <trkpt lat="53.626220" lon="9.872180">
  1979.     <ele>3.068</ele>
  1980.     <time>2010-10-17T12:01:13Z</time>
  1981.    </trkpt>
  1982.    <trkpt lat="53.625824" lon="9.871893">
  1983.     <ele>2.758</ele>
  1984.     <time>2010-10-17T12:01:25Z</time>
  1985.    </trkpt>
  1986.    <trkpt lat="53.625454" lon="9.871572">
  1987.     <ele>3.000</ele>
  1988.     <time>2010-10-17T12:01:40Z</time>
  1989.    </trkpt>
  1990.    <trkpt lat="53.625426" lon="9.871494">
  1991.     <ele>2.242</ele>
  1992.     <time>2010-10-17T12:01:44Z</time>
  1993.    </trkpt>
  1994.    <trkpt lat="53.625621" lon="9.871077">
  1995.     <ele>-1.023</ele>
  1996.     <time>2010-10-17T12:01:56Z</time>
  1997.    </trkpt>
  1998.    <trkpt lat="53.625494" lon="9.870836">
  1999.     <ele>-1.912</ele>
  2000.     <time>2010-10-17T12:02:02Z</time>
  2001.    </trkpt>
  2002.    <trkpt lat="53.625046" lon="9.870623">
  2003.     <ele>-0.485</ele>
  2004.     <time>2010-10-17T12:02:16Z</time>
  2005.    </trkpt>
  2006.    <trkpt lat="53.624495" lon="9.870293">
  2007.     <ele>-0.010</ele>
  2008.     <time>2010-10-17T12:02:30Z</time>
  2009.    </trkpt>
  2010.    <trkpt lat="53.623771" lon="9.869921">
  2011.     <ele>-0.491</ele>
  2012.     <time>2010-10-17T12:02:50Z</time>
  2013.    </trkpt>
  2014.    <trkpt lat="53.623670" lon="9.869866">
  2015.     <ele>0.367</ele>
  2016.     <time>2010-10-17T12:02:53Z</time>
  2017.    </trkpt>
  2018.    <trkpt lat="53.623579" lon="9.869884">
  2019.     <ele>0.170</ele>
  2020.     <time>2010-10-17T12:02:56Z</time>
  2021.    </trkpt>
  2022.    <trkpt lat="53.623336" lon="9.869865">
  2023.     <ele>-2.438</ele>
  2024.     <time>2010-10-17T12:03:05Z</time>
  2025.    </trkpt>
  2026.    <trkpt lat="53.623289" lon="9.869974">
  2027.     <ele>-3.314</ele>
  2028.     <time>2010-10-17T12:03:09Z</time>
  2029.    </trkpt>
  2030.    <trkpt lat="53.623087" lon="9.870437">
  2031.     <ele>-2.319</ele>
  2032.     <time>2010-10-17T12:03:21Z</time>
  2033.    </trkpt>
  2034.    <trkpt lat="53.622960" lon="9.870866">
  2035.     <ele>1.953</ele>
  2036.     <time>2010-10-17T12:03:33Z</time>
  2037.    </trkpt>
  2038.    <trkpt lat="53.622611" lon="9.871626">
  2039.     <ele>7.031</ele>
  2040.     <time>2010-10-17T12:03:49Z</time>
  2041.    </trkpt>
  2042.    <trkpt lat="53.622331" lon="9.872417">
  2043.     <ele>9.902</ele>
  2044.     <time>2010-10-17T12:04:04Z</time>
  2045.    </trkpt>
  2046.    <trkpt lat="53.622057" lon="9.873039">
  2047.     <ele>12.095</ele>
  2048.     <time>2010-10-17T12:04:15Z</time>
  2049.    </trkpt>
  2050.    <trkpt lat="53.622030" lon="9.873121">
  2051.     <ele>11.729</ele>
  2052.     <time>2010-10-17T12:04:17Z</time>
  2053.    </trkpt>
  2054.    <trkpt lat="53.621731" lon="9.873597">
  2055.     <ele>13.540</ele>
  2056.     <time>2010-10-17T12:04:32Z</time>
  2057.    </trkpt>
  2058.    <trkpt lat="53.621685" lon="9.873633">
  2059.     <ele>13.394</ele>
  2060.     <time>2010-10-17T12:04:34Z</time>
  2061.    </trkpt>
  2062.    <trkpt lat="53.621506" lon="9.873313">
  2063.     <ele>11.550</ele>
  2064.     <time>2010-10-17T12:04:45Z</time>
  2065.    </trkpt>
  2066.    <trkpt lat="53.621392" lon="9.873096">
  2067.     <ele>10.630</ele>
  2068.     <time>2010-10-17T12:04:49Z</time>
  2069.    </trkpt>
  2070.    <trkpt lat="53.621085" lon="9.872926">
  2071.     <ele>11.108</ele>
  2072.     <time>2010-10-17T12:04:58Z</time>
  2073.    </trkpt>
  2074.    <trkpt lat="53.621055" lon="9.872794">
  2075.     <ele>5.980</ele>
  2076.     <time>2010-10-17T12:05:03Z</time>
  2077.    </trkpt>
  2078.    <trkpt lat="53.621220" lon="9.872068">
  2079.     <ele>11.134</ele>
  2080.     <time>2010-10-17T12:05:20Z</time>
  2081.    </trkpt>
  2082.    <trkpt lat="53.621222" lon="9.871058">
  2083.     <ele>11.622</ele>
  2084.     <time>2010-10-17T12:05:37Z</time>
  2085.    </trkpt>
  2086.    <trkpt lat="53.620686" lon="9.870124">
  2087.     <ele>11.130</ele>
  2088.     <time>2010-10-17T12:05:57Z</time>
  2089.    </trkpt>
  2090.    <trkpt lat="53.620090" lon="9.869031">
  2091.     <ele>8.556</ele>
  2092.     <time>2010-10-17T12:06:19Z</time>
  2093.    </trkpt>
  2094.    <trkpt lat="53.619468" lon="9.868191">
  2095.     <ele>14.183</ele>
  2096.     <time>2010-10-17T12:06:39Z</time>
  2097.    </trkpt>
  2098.    <trkpt lat="53.618688" lon="9.867226">
  2099.     <ele>12.443</ele>
  2100.     <time>2010-10-17T12:07:06Z</time>
  2101.    </trkpt>
  2102.    <trkpt lat="53.618195" lon="9.866647">
  2103.     <ele>11.373</ele>
  2104.     <time>2010-10-17T12:07:25Z</time>
  2105.    </trkpt>
  2106.    <trkpt lat="53.617765" lon="9.866366">
  2107.     <ele>10.663</ele>
  2108.     <time>2010-10-17T12:07:39Z</time>
  2109.    </trkpt>
  2110.    <trkpt lat="53.617395" lon="9.866800">
  2111.     <ele>9.915</ele>
  2112.     <time>2010-10-17T12:07:52Z</time>
  2113.    </trkpt>
  2114.    <trkpt lat="53.617030" lon="9.867202">
  2115.     <ele>8.425</ele>
  2116.     <time>2010-10-17T12:08:06Z</time>
  2117.    </trkpt>
  2118.    <trkpt lat="53.617011" lon="9.867226">
  2119.     <ele>8.170</ele>
  2120.     <time>2010-10-17T12:08:07Z</time>
  2121.    </trkpt>
  2122.    <trkpt lat="53.616939" lon="9.867313">
  2123.     <ele>8.551</ele>
  2124.     <time>2010-10-17T12:08:12Z</time>
  2125.    </trkpt>
  2126.    <trkpt lat="53.616584" lon="9.866916">
  2127.     <ele>7.877</ele>
  2128.     <time>2010-10-17T12:08:24Z</time>
  2129.    </trkpt>
  2130.    <trkpt lat="53.616398" lon="9.867126">
  2131.     <ele>9.434</ele>
  2132.     <time>2010-10-17T12:08:29Z</time>
  2133.    </trkpt>
  2134.    <trkpt lat="53.616291" lon="9.867207">
  2135.     <ele>10.178</ele>
  2136.     <time>2010-10-17T12:08:33Z</time>
  2137.    </trkpt>
  2138.    <trkpt lat="53.616205" lon="9.867261">
  2139.     <ele>13.252</ele>
  2140.     <time>2010-10-17T12:08:49Z</time>
  2141.    </trkpt>
  2142.    <trkpt lat="53.616130" lon="9.867440">
  2143.     <ele>13.390</ele>
  2144.     <time>2010-10-17T12:09:10Z</time>
  2145.    </trkpt>
  2146.    <trkpt lat="53.616071" lon="9.867440">
  2147.     <ele>15.092</ele>
  2148.     <time>2010-10-17T12:09:19Z</time>
  2149.    </trkpt>
  2150.    <trkpt lat="53.616039" lon="9.867443">
  2151.     <ele>14.825</ele>
  2152.     <time>2010-10-17T12:09:33Z</time>
  2153.    </trkpt>
  2154.    <trkpt lat="53.616018" lon="9.867465">
  2155.     <ele>15.917</ele>
  2156.     <time>2010-10-17T12:10:17Z</time>
  2157.    </trkpt>
  2158.    <trkpt lat="53.616005" lon="9.867444">
  2159.     <ele>17.792</ele>
  2160.     <time>2010-10-17T12:11:44Z</time>
  2161.    </trkpt>
  2162.    <trkpt lat="53.615883" lon="9.867584">
  2163.     <ele>17.612</ele>
  2164.     <time>2010-10-17T12:12:34Z</time>
  2165.    </trkpt>
  2166.    <trkpt lat="53.615846" lon="9.867623">
  2167.     <ele>16.811</ele>
  2168.     <time>2010-10-17T12:12:55Z</time>
  2169.    </trkpt>
  2170.    <trkpt lat="53.615823" lon="9.867635">
  2171.     <ele>16.355</ele>
  2172.     <time>2010-10-17T12:14:06Z</time>
  2173.    </trkpt>
  2174.    <trkpt lat="53.615840" lon="9.867654">
  2175.     <ele>15.079</ele>
  2176.     <time>2010-10-17T12:14:53Z</time>
  2177.    </trkpt>
  2178.    <trkpt lat="53.615857" lon="9.867674">
  2179.     <ele>13.610</ele>
  2180.     <time>2010-10-17T12:15:14Z</time>
  2181.    </trkpt>
  2182.    <trkpt lat="53.615857" lon="9.867677">
  2183.     <ele>12.846</ele>
  2184.     <time>2010-10-17T12:15:41Z</time>
  2185.    </trkpt>
  2186.    <trkpt lat="53.615869" lon="9.867701">
  2187.     <ele>13.352</ele>
  2188.     <time>2010-10-17T12:15:54Z</time>
  2189.    </trkpt>
  2190.    <trkpt lat="53.615871" lon="9.867732">
  2191.     <ele>11.401</ele>
  2192.     <time>2010-10-17T12:17:19Z</time>
  2193.    </trkpt>
  2194.    <trkpt lat="53.615790" lon="9.867792">
  2195.     <ele>10.925</ele>
  2196.     <time>2010-10-17T12:17:33Z</time>
  2197.    </trkpt>
  2198.    <trkpt lat="53.615739" lon="9.867786">
  2199.     <ele>10.866</ele>
  2200.     <time>2010-10-17T12:17:59Z</time>
  2201.    </trkpt>
  2202.    <trkpt lat="53.615410" lon="9.868426">
  2203.     <ele>11.682</ele>
  2204.     <time>2010-10-17T12:18:10Z</time>
  2205.    </trkpt>
  2206.    <trkpt lat="53.614615" lon="9.869962">
  2207.     <ele>11.867</ele>
  2208.     <time>2010-10-17T12:18:21Z</time>
  2209.    </trkpt>
  2210.    <trkpt lat="53.613339" lon="9.872387">
  2211.     <ele>14.525</ele>
  2212.     <time>2010-10-17T12:18:32Z</time>
  2213.    </trkpt>
  2214.    <trkpt lat="53.610938" lon="9.877117">
  2215.     <ele>14.988</ele>
  2216.     <time>2010-10-17T12:18:50Z</time>
  2217.    </trkpt>
  2218.    <trkpt lat="53.609013" lon="9.880898">
  2219.     <ele>16.117</ele>
  2220.     <time>2010-10-17T12:19:05Z</time>
  2221.    </trkpt>
  2222.    <trkpt lat="53.606354" lon="9.886066">
  2223.     <ele>18.092</ele>
  2224.     <time>2010-10-17T12:19:27Z</time>
  2225.    </trkpt>
  2226.    <trkpt lat="53.604008" lon="9.890587">
  2227.     <ele>20.109</ele>
  2228.     <time>2010-10-17T12:19:49Z</time>
  2229.    </trkpt>
  2230.    <trkpt lat="53.602928" lon="9.892735">
  2231.     <ele>18.787</ele>
  2232.     <time>2010-10-17T12:20:03Z</time>
  2233.    </trkpt>
  2234.    <trkpt lat="53.602529" lon="9.893441">
  2235.     <ele>23.016</ele>
  2236.     <time>2010-10-17T12:20:13Z</time>
  2237.    </trkpt>
  2238.    <trkpt lat="53.602502" lon="9.893486">
  2239.     <ele>23.955</ele>
  2240.     <time>2010-10-17T12:20:30Z</time>
  2241.    </trkpt>
  2242.    <trkpt lat="53.602508" lon="9.893511">
  2243.     <ele>23.747</ele>
  2244.     <time>2010-10-17T12:21:08Z</time>
  2245.    </trkpt>
  2246.    <trkpt lat="53.602517" lon="9.893507">
  2247.     <ele>23.817</ele>
  2248.     <time>2010-10-17T12:23:03Z</time>
  2249.    </trkpt>
  2250.    <trkpt lat="53.602404" lon="9.893742">
  2251.     <ele>22.278</ele>
  2252.     <time>2010-10-17T12:25:10Z</time>
  2253.    </trkpt>
  2254.    <trkpt lat="53.602322" lon="9.893959">
  2255.     <ele>20.356</ele>
  2256.     <time>2010-10-17T12:25:36Z</time>
  2257.    </trkpt>
  2258.    <trkpt lat="53.602334" lon="9.893973">
  2259.     <ele>20.994</ele>
  2260.     <time>2010-10-17T12:27:21Z</time>
  2261.    </trkpt>
  2262.    <trkpt lat="53.602327" lon="9.894001">
  2263.     <ele>21.048</ele>
  2264.     <time>2010-10-17T12:27:30Z</time>
  2265.    </trkpt>
  2266.    <trkpt lat="53.602310" lon="9.893990">
  2267.     <ele>21.369</ele>
  2268.     <time>2010-10-17T12:27:47Z</time>
  2269.    </trkpt>
  2270.    <trkpt lat="53.602287" lon="9.894005">
  2271.     <ele>21.358</ele>
  2272.     <time>2010-10-17T12:27:50Z</time>
  2273.    </trkpt>
  2274.    <trkpt lat="53.601796" lon="9.894890">
  2275.     <ele>21.100</ele>
  2276.     <time>2010-10-17T12:28:02Z</time>
  2277.    </trkpt>
  2278.    <trkpt lat="53.600812" lon="9.896789">
  2279.     <ele>20.891</ele>
  2280.     <time>2010-10-17T12:28:14Z</time>
  2281.    </trkpt>
  2282.    <trkpt lat="53.599470" lon="9.899705">
  2283.     <ele>20.475</ele>
  2284.     <time>2010-10-17T12:28:27Z</time>
  2285.    </trkpt>
  2286.    <trkpt lat="53.597720" lon="9.903104">
  2287.     <ele>19.433</ele>
  2288.     <time>2010-10-17T12:28:42Z</time>
  2289.    </trkpt>
  2290.    <trkpt lat="53.596604" lon="9.905275">
  2291.     <ele>18.695</ele>
  2292.     <time>2010-10-17T12:28:54Z</time>
  2293.    </trkpt>
  2294.    <trkpt lat="53.595921" lon="9.906613">
  2295.     <ele>16.964</ele>
  2296.     <time>2010-10-17T12:29:06Z</time>
  2297.    </trkpt>
  2298.    <trkpt lat="53.595671" lon="9.907004">
  2299.     <ele>15.246</ele>
  2300.     <time>2010-10-17T12:29:17Z</time>
  2301.    </trkpt>
  2302.    <trkpt lat="53.595720" lon="9.906982">
  2303.     <ele>14.524</ele>
  2304.     <time>2010-10-17T12:29:45Z</time>
  2305.    </trkpt>
  2306.    <trkpt lat="53.595374" lon="9.907656">
  2307.     <ele>13.173</ele>
  2308.     <time>2010-10-17T12:29:54Z</time>
  2309.    </trkpt>
  2310.    <trkpt lat="53.594547" lon="9.909263">
  2311.     <ele>13.047</ele>
  2312.     <time>2010-10-17T12:30:04Z</time>
  2313.    </trkpt>
  2314.    <trkpt lat="53.593275" lon="9.911811">
  2315.     <ele>12.187</ele>
  2316.     <time>2010-10-17T12:30:15Z</time>
  2317.    </trkpt>
  2318.    <trkpt lat="53.591692" lon="9.914974">
  2319.     <ele>11.064</ele>
  2320.     <time>2010-10-17T12:30:28Z</time>
  2321.    </trkpt>
  2322.    <trkpt lat="53.590579" lon="9.917020">
  2323.     <ele>9.936</ele>
  2324.     <time>2010-10-17T12:30:39Z</time>
  2325.    </trkpt>
  2326.    <trkpt lat="53.589885" lon="9.918052">
  2327.     <ele>10.688</ele>
  2328.     <time>2010-10-17T12:30:48Z</time>
  2329.    </trkpt>
  2330.    <trkpt lat="53.589830" lon="9.918114">
  2331.     <ele>11.164</ele>
  2332.     <time>2010-10-17T12:30:49Z</time>
  2333.    </trkpt>
  2334.    <trkpt lat="53.589479" lon="9.918379">
  2335.     <ele>14.132</ele>
  2336.     <time>2010-10-17T12:31:00Z</time>
  2337.    </trkpt>
  2338.    <trkpt lat="53.589461" lon="9.918313">
  2339.     <ele>15.503</ele>
  2340.     <time>2010-10-17T12:31:24Z</time>
  2341.    </trkpt>
  2342.    <trkpt lat="53.589459" lon="9.918314">
  2343.     <ele>15.524</ele>
  2344.     <time>2010-10-17T12:31:25Z</time>
  2345.    </trkpt>
  2346.    <trkpt lat="53.589080" lon="9.919189">
  2347.     <ele>13.878</ele>
  2348.     <time>2010-10-17T12:31:35Z</time>
  2349.    </trkpt>
  2350.    <trkpt lat="53.588297" lon="9.920889">
  2351.     <ele>12.499</ele>
  2352.     <time>2010-10-17T12:31:45Z</time>
  2353.    </trkpt>
  2354.    <trkpt lat="53.587149" lon="9.923176">
  2355.     <ele>10.316</ele>
  2356.     <time>2010-10-17T12:31:55Z</time>
  2357.    </trkpt>
  2358.    <trkpt lat="53.586732" lon="9.923847">
  2359.     <ele>10.275</ele>
  2360.     <time>2010-10-17T12:31:58Z</time>
  2361.    </trkpt>
  2362.    <trkpt lat="53.585150" lon="9.926182">
  2363.     <ele>10.077</ele>
  2364.     <time>2010-10-17T12:32:09Z</time>
  2365.    </trkpt>
  2366.    <trkpt lat="53.583453" lon="9.928088">
  2367.     <ele>11.004</ele>
  2368.     <time>2010-10-17T12:32:20Z</time>
  2369.    </trkpt>
  2370.    <trkpt lat="53.581955" lon="9.929397">
  2371.     <ele>11.828</ele>
  2372.     <time>2010-10-17T12:32:30Z</time>
  2373.    </trkpt>
  2374.    <trkpt lat="53.581275" lon="9.929901">
  2375.     <ele>14.089</ele>
  2376.     <time>2010-10-17T12:32:35Z</time>
  2377.    </trkpt>
  2378.    <trkpt lat="53.580389" lon="9.930296">
  2379.     <ele>20.944</ele>
  2380.     <time>2010-10-17T12:32:43Z</time>
  2381.    </trkpt>
  2382.    <trkpt lat="53.579796" lon="9.930665">
  2383.     <ele>24.966</ele>
  2384.     <time>2010-10-17T12:32:51Z</time>
  2385.    </trkpt>
  2386.    <trkpt lat="53.579715" lon="9.930722">
  2387.     <ele>25.730</ele>
  2388.     <time>2010-10-17T12:32:53Z</time>
  2389.    </trkpt>
  2390.    <trkpt lat="53.579620" lon="9.930791">
  2391.     <ele>29.000</ele>
  2392.     <time>2010-10-17T12:33:03Z</time>
  2393.    </trkpt>
  2394.    <trkpt lat="53.579592" lon="9.930774">
  2395.     <ele>34.800</ele>
  2396.     <time>2010-10-17T12:33:16Z</time>
  2397.    </trkpt>
  2398.    <trkpt lat="53.579578" lon="9.930834">
  2399.     <ele>35.875</ele>
  2400.     <time>2010-10-17T12:33:21Z</time>
  2401.    </trkpt>
  2402.    <trkpt lat="53.578987" lon="9.931103">
  2403.     <ele>38.525</ele>
  2404.     <time>2010-10-17T12:33:32Z</time>
  2405.    </trkpt>
  2406.    <trkpt lat="53.577780" lon="9.931444">
  2407.     <ele>39.283</ele>
  2408.     <time>2010-10-17T12:33:41Z</time>
  2409.    </trkpt>
  2410.    <trkpt lat="53.575768" lon="9.931904">
  2411.     <ele>35.845</ele>
  2412.     <time>2010-10-17T12:33:52Z</time>
  2413.    </trkpt>
  2414.    <trkpt lat="53.573771" lon="9.932187">
  2415.     <ele>30.834</ele>
  2416.     <time>2010-10-17T12:34:02Z</time>
  2417.    </trkpt>
  2418.    <trkpt lat="53.572192" lon="9.932967">
  2419.     <ele>24.623</ele>
  2420.     <time>2010-10-17T12:34:11Z</time>
  2421.    </trkpt>
  2422.    <trkpt lat="53.570961" lon="9.933655">
  2423.     <ele>20.276</ele>
  2424.     <time>2010-10-17T12:34:19Z</time>
  2425.    </trkpt>
  2426.    <trkpt lat="53.569579" lon="9.934035">
  2427.     <ele>16.028</ele>
  2428.     <time>2010-10-17T12:34:30Z</time>
  2429.    </trkpt>
  2430.    <trkpt lat="53.568781" lon="9.934139">
  2431.     <ele>13.302</ele>
  2432.     <time>2010-10-17T12:34:42Z</time>
  2433.    </trkpt>
  2434.    <trkpt lat="53.568612" lon="9.934166">
  2435.     <ele>11.810</ele>
  2436.     <time>2010-10-17T12:34:53Z</time>
  2437.    </trkpt>
  2438.    <trkpt lat="53.568405" lon="9.934223">
  2439.     <ele>10.997</ele>
  2440.     <time>2010-10-17T12:35:22Z</time>
  2441.    </trkpt>
  2442.    <trkpt lat="53.568354" lon="9.934223">
  2443.     <ele>10.936</ele>
  2444.     <time>2010-10-17T12:35:23Z</time>
  2445.    </trkpt>
  2446.    <trkpt lat="53.568174" lon="9.934188">
  2447.     <ele>10.844</ele>
  2448.     <time>2010-10-17T12:35:26Z</time>
  2449.    </trkpt>
  2450.    <trkpt lat="53.566827" lon="9.934421">
  2451.     <ele>7.944</ele>
  2452.     <time>2010-10-17T12:35:37Z</time>
  2453.    </trkpt>
  2454.    <trkpt lat="53.566092" lon="9.934537">
  2455.     <ele>12.285</ele>
  2456.     <time>2010-10-17T12:35:42Z</time>
  2457.    </trkpt>
  2458.    <trkpt lat="53.565463" lon="9.934793">
  2459.     <ele>13.999</ele>
  2460.     <time>2010-10-17T12:35:46Z</time>
  2461.    </trkpt>
  2462.    <trkpt lat="53.564349" lon="9.936570">
  2463.     <ele>17.547</ele>
  2464.     <time>2010-10-17T12:35:56Z</time>
  2465.    </trkpt>
  2466.    <trkpt lat="53.563431" lon="9.938745">
  2467.     <ele>20.852</ele>
  2468.     <time>2010-10-17T12:36:07Z</time>
  2469.    </trkpt>
  2470.    <trkpt lat="53.563075" lon="9.941411">
  2471.     <ele>22.133</ele>
  2472.     <time>2010-10-17T12:36:19Z</time>
  2473.    </trkpt>
  2474.    <trkpt lat="53.562796" lon="9.943882">
  2475.     <ele>20.060</ele>
  2476.     <time>2010-10-17T12:36:29Z</time>
  2477.    </trkpt>
  2478.    <trkpt lat="53.562411" lon="9.946104">
  2479.     <ele>19.908</ele>
  2480.     <time>2010-10-17T12:36:39Z</time>
  2481.    </trkpt>
  2482.    <trkpt lat="53.561952" lon="9.948316">
  2483.     <ele>18.137</ele>
  2484.     <time>2010-10-17T12:36:51Z</time>
  2485.    </trkpt>
  2486.    <trkpt lat="53.561688" lon="9.949130">
  2487.     <ele>16.284</ele>
  2488.     <time>2010-10-17T12:36:57Z</time>
  2489.    </trkpt>
  2490.    <trkpt lat="53.561559" lon="9.949441">
  2491.     <ele>15.983</ele>
  2492.     <time>2010-10-17T12:37:00Z</time>
  2493.    </trkpt>
  2494.    <trkpt lat="53.561489" lon="9.949667">
  2495.     <ele>15.299</ele>
  2496.     <time>2010-10-17T12:37:04Z</time>
  2497.    </trkpt>
  2498.    <trkpt lat="53.561708" lon="9.949758">
  2499.     <ele>20.387</ele>
  2500.     <time>2010-10-17T12:37:18Z</time>
  2501.    </trkpt>
  2502.    <trkpt lat="53.561795" lon="9.949910">
  2503.     <ele>24.145</ele>
  2504.     <time>2010-10-17T12:37:40Z</time>
  2505.    </trkpt>
  2506.    <trkpt lat="53.561686" lon="9.950260">
  2507.     <ele>24.704</ele>
  2508.     <time>2010-10-17T12:37:45Z</time>
  2509.    </trkpt>
  2510.    <trkpt lat="53.561627" lon="9.950512">
  2511.     <ele>24.903</ele>
  2512.     <time>2010-10-17T12:37:47Z</time>
  2513.    </trkpt>
  2514.    <trkpt lat="53.561579" lon="9.950814">
  2515.     <ele>25.190</ele>
  2516.     <time>2010-10-17T12:37:49Z</time>
  2517.    </trkpt>
  2518.    <trkpt lat="53.561299" lon="9.953220">
  2519.     <ele>26.710</ele>
  2520.     <time>2010-10-17T12:38:00Z</time>
  2521.    </trkpt>
  2522.    <trkpt lat="53.561508" lon="9.956342">
  2523.     <ele>25.377</ele>
  2524.     <time>2010-10-17T12:38:13Z</time>
  2525.    </trkpt>
  2526.    <trkpt lat="53.561549" lon="9.956552">
  2527.     <ele>25.232</ele>
  2528.     <time>2010-10-17T12:38:14Z</time>
  2529.    </trkpt>
  2530.    <trkpt lat="53.562289" lon="9.958538">
  2531.     <ele>21.353</ele>
  2532.     <time>2010-10-17T12:38:24Z</time>
  2533.    </trkpt>
  2534.    <trkpt lat="53.562992" lon="9.960391">
  2535.     <ele>17.085</ele>
  2536.     <time>2010-10-17T12:38:34Z</time>
  2537.    </trkpt>
  2538.    <trkpt lat="53.563501" lon="9.962522">
  2539.     <ele>11.899</ele>
  2540.     <time>2010-10-17T12:38:45Z</time>
  2541.    </trkpt>
  2542.    <trkpt lat="53.563594" lon="9.964891">
  2543.     <ele>7.822</ele>
  2544.     <time>2010-10-17T12:38:57Z</time>
  2545.    </trkpt>
  2546.    <trkpt lat="53.563642" lon="9.966085">
  2547.     <ele>12.555</ele>
  2548.     <time>2010-10-17T12:39:04Z</time>
  2549.    </trkpt>
  2550.    <trkpt lat="53.563625" lon="9.966504">
  2551.     <ele>14.136</ele>
  2552.     <time>2010-10-17T12:39:07Z</time>
  2553.    </trkpt>
  2554.    <trkpt lat="53.563630" lon="9.966869">
  2555.     <ele>15.418</ele>
  2556.     <time>2010-10-17T12:39:10Z</time>
  2557.    </trkpt>
  2558.    <trkpt lat="53.563608" lon="9.967290">
  2559.     <ele>18.296</ele>
  2560.     <time>2010-10-17T12:39:16Z</time>
  2561.    </trkpt>
  2562.    <trkpt lat="53.563609" lon="9.967310">
  2563.     <ele>19.461</ele>
  2564.     <time>2010-10-17T12:39:19Z</time>
  2565.    </trkpt>
  2566.   </trkseg>
  2567.  </trk>
  2568. </gpx>

Update the Post

Either update this post and resubmit it with changes, or make a new post.

You may also comment on this post.

update paste below
details of the post (optional)

Note: Only the paste content is required, though the following information can be useful to others.

Save name / title?

(space separated, optional)



Please note that information posted here will expire by default in one month. If you do not want it to expire, please set the expiry time above. If it is set to expire, web search engines will not be allowed to index it prior to it expiring. Items that are not marked to expire will be indexable by search engines. Be careful with your passwords. All illegal activities will be reported and any information will be handed over to the authorities, so be good.

comments powered by Disqus
worth-right
worth-right
worth-right